<?xml version="1.0" encoding="UTF-8" standalone="no" ?>
<gpx xmlns="http://www.topografix.com/GPX/1/1" xmlns:xsi="http://www.w3.org/2001/XMLSchema-instance" xsi:schemaLocation="http://www.topografix.com/GPX/1/1 http://www.topografix.com/GPX/1/1/gpx.xsd" version="1.1" creator="VisuGPX - https://www.visugpx.com">
  <metadata>
    <name>col de l\'Oeillon depuis Echalas</name>
    <desc><![CDATA[Le col est difficile, mais la descente ensuite sur la Terrasse sur Dorlay est très agréable.]]></desc>
  </metadata>
  <trk>
    <name><![CDATA[Sequence 2]]></name>
    <trkseg>
      <trkpt lat="45.38845" lon="4.61592">
        <ele>1234</ele>
        <time>2015-07-27T13:59:03Z</time>
      </trkpt>
      <trkpt lat="45.38845" lon="4.61592">
        <ele>1234</ele>
        <time>2015-07-27T13:59:06Z</time>
      </trkpt>
      <trkpt lat="45.38845" lon="4.61593">
        <ele>1234</ele>
        <time>2015-07-27T13:59:09Z</time>
      </trkpt>
      <trkpt lat="45.38847" lon="4.61593">
        <ele>1234</ele>
        <time>2015-07-27T13:59:12Z</time>
      </trkpt>
      <trkpt lat="45.38848" lon="4.61594">
        <ele>1234</ele>
        <time>2015-07-27T13:59:17Z</time>
      </trkpt>
      <trkpt lat="45.38848" lon="4.61594">
        <ele>1234</ele>
        <time>2015-07-27T13:59:20Z</time>
      </trkpt>
      <trkpt lat="45.38849" lon="4.61593">
        <ele>1234</ele>
        <time>2015-07-27T13:59:23Z</time>
      </trkpt>
      <trkpt lat="45.38847" lon="4.61594">
        <ele>1234</ele>
        <time>2015-07-27T13:59:27Z</time>
      </trkpt>
      <trkpt lat="45.38847" lon="4.61595">
        <ele>1234</ele>
        <time>2015-07-27T13:59:29Z</time>
      </trkpt>
      <trkpt lat="45.38847" lon="4.61594">
        <ele>1234</ele>
        <time>2015-07-27T13:59:32Z</time>
      </trkpt>
      <trkpt lat="45.38847" lon="4.61594">
        <ele>1234</ele>
        <time>2015-07-27T13:59:35Z</time>
      </trkpt>
      <trkpt lat="45.38847" lon="4.61593">
        <ele>1234</ele>
        <time>2015-07-27T13:59:38Z</time>
      </trkpt>
      <trkpt lat="45.38847" lon="4.61593">
        <ele>1234</ele>
        <time>2015-07-27T13:59:41Z</time>
      </trkpt>
      <trkpt lat="45.38846" lon="4.61593">
        <ele>1234</ele>
        <time>2015-07-27T13:59:44Z</time>
      </trkpt>
      <trkpt lat="45.38846" lon="4.61593">
        <ele>1234</ele>
        <time>2015-07-27T13:59:47Z</time>
      </trkpt>
      <trkpt lat="45.38846" lon="4.61593">
        <ele>1234</ele>
        <time>2015-07-27T13:59:50Z</time>
      </trkpt>
      <trkpt lat="45.38846" lon="4.61593">
        <ele>1234</ele>
        <time>2015-07-27T13:59:53Z</time>
      </trkpt>
      <trkpt lat="45.38846" lon="4.61593">
        <ele>1234</ele>
        <time>2015-07-27T13:59:56Z</time>
      </trkpt>
      <trkpt lat="45.38846" lon="4.61593">
        <ele>1234</ele>
        <time>2015-07-27T13:59:59Z</time>
      </trkpt>
      <trkpt lat="45.38846" lon="4.61593">
        <ele>1234</ele>
        <time>2015-07-27T14:00:02Z</time>
      </trkpt>
      <trkpt lat="45.38845" lon="4.61593">
        <ele>1234</ele>
        <time>2015-07-27T14:00:05Z</time>
      </trkpt>
      <trkpt lat="45.38845" lon="4.61593">
        <ele>1234</ele>
        <time>2015-07-27T14:00:08Z</time>
      </trkpt>
      <trkpt lat="45.38845" lon="4.61593">
        <ele>1234</ele>
        <time>2015-07-27T14:00:11Z</time>
      </trkpt>
      <trkpt lat="45.38845" lon="4.61593">
        <ele>1234</ele>
        <time>2015-07-27T14:00:14Z</time>
      </trkpt>
      <trkpt lat="45.38845" lon="4.61593">
        <ele>1234</ele>
        <time>2015-07-27T14:00:17Z</time>
      </trkpt>
      <trkpt lat="45.38845" lon="4.61593">
        <ele>1234</ele>
        <time>2015-07-27T14:00:20Z</time>
      </trkpt>
      <trkpt lat="45.38845" lon="4.61593">
        <ele>1234</ele>
        <time>2015-07-27T14:00:23Z</time>
      </trkpt>
      <trkpt lat="45.38845" lon="4.61593">
        <ele>1234</ele>
        <time>2015-07-27T14:00:26Z</time>
      </trkpt>
      <trkpt lat="45.38845" lon="4.61593">
        <ele>1234</ele>
        <time>2015-07-27T14:00:29Z</time>
      </trkpt>
      <trkpt lat="45.38845" lon="4.61593">
        <ele>1234</ele>
        <time>2015-07-27T14:00:32Z</time>
      </trkpt>
      <trkpt lat="45.38845" lon="4.61593">
        <ele>1234</ele>
        <time>2015-07-27T14:00:35Z</time>
      </trkpt>
      <trkpt lat="45.38845" lon="4.61593">
        <ele>1234</ele>
        <time>2015-07-27T14:00:37Z</time>
      </trkpt>
      <trkpt lat="45.38845" lon="4.61593">
        <ele>1234</ele>
        <time>2015-07-27T14:00:40Z</time>
      </trkpt>
      <trkpt lat="45.38846" lon="4.61593">
        <ele>1234</ele>
        <time>2015-07-27T14:00:43Z</time>
      </trkpt>
      <trkpt lat="45.38844" lon="4.61592">
        <ele>1234</ele>
        <time>2015-07-27T14:00:46Z</time>
      </trkpt>
      <trkpt lat="45.38844" lon="4.61591">
        <ele>1235</ele>
        <time>2015-07-27T14:00:51Z</time>
      </trkpt>
      <trkpt lat="45.38844" lon="4.61587">
        <ele>1235</ele>
        <time>2015-07-27T14:00:54Z</time>
      </trkpt>
      <trkpt lat="45.38859" lon="4.61579">
        <ele>1237</ele>
        <time>2015-07-27T14:01:01Z</time>
      </trkpt>
      <trkpt lat="45.38864" lon="4.61583">
        <ele>1237</ele>
        <time>2015-07-27T14:01:04Z</time>
      </trkpt>
      <trkpt lat="45.38878" lon="4.61587">
        <ele>1233</ele>
        <time>2015-07-27T14:01:09Z</time>
      </trkpt>
      <trkpt lat="45.38893" lon="4.61587">
        <ele>1233</ele>
        <time>2015-07-27T14:01:14Z</time>
      </trkpt>
      <trkpt lat="45.38909" lon="4.61588">
        <ele>1234</ele>
        <time>2015-07-27T14:01:19Z</time>
      </trkpt>
      <trkpt lat="45.38934" lon="4.61589">
        <ele>1229</ele>
        <time>2015-07-27T14:01:24Z</time>
      </trkpt>
      <trkpt lat="45.38982" lon="4.61585">
        <ele>1227</ele>
        <time>2015-07-27T14:01:32Z</time>
      </trkpt>
      <trkpt lat="45.38995" lon="4.61585">
        <ele>1230</ele>
        <time>2015-07-27T14:01:34Z</time>
      </trkpt>
      <trkpt lat="45.39028" lon="4.6158">
        <ele>1238</ele>
        <time>2015-07-27T14:01:39Z</time>
      </trkpt>
      <trkpt lat="45.39062" lon="4.61578">
        <ele>1236</ele>
        <time>2015-07-27T14:01:44Z</time>
      </trkpt>
      <trkpt lat="45.39099" lon="4.61575">
        <ele>1237</ele>
        <time>2015-07-27T14:01:49Z</time>
      </trkpt>
      <trkpt lat="45.39139" lon="4.61574">
        <ele>1240</ele>
        <time>2015-07-27T14:01:54Z</time>
      </trkpt>
      <trkpt lat="45.39179" lon="4.61575">
        <ele>1239</ele>
        <time>2015-07-27T14:01:59Z</time>
      </trkpt>
      <trkpt lat="45.3922" lon="4.61582">
        <ele>1242</ele>
        <time>2015-07-27T14:02:04Z</time>
      </trkpt>
      <trkpt lat="45.39261" lon="4.61585">
        <ele>1225</ele>
        <time>2015-07-27T14:02:09Z</time>
      </trkpt>
      <trkpt lat="45.39301" lon="4.61584">
        <ele>1222</ele>
        <time>2015-07-27T14:02:14Z</time>
      </trkpt>
      <trkpt lat="45.39339" lon="4.61572">
        <ele>1238</ele>
        <time>2015-07-27T14:02:19Z</time>
      </trkpt>
      <trkpt lat="45.39376" lon="4.61558">
        <ele>1239</ele>
        <time>2015-07-27T14:02:24Z</time>
      </trkpt>
      <trkpt lat="45.39415" lon="4.61543">
        <ele>1238</ele>
        <time>2015-07-27T14:02:29Z</time>
      </trkpt>
      <trkpt lat="45.39457" lon="4.61534">
        <ele>1229</ele>
        <time>2015-07-27T14:02:34Z</time>
      </trkpt>
      <trkpt lat="45.39502" lon="4.61534">
        <ele>1225</ele>
        <time>2015-07-27T14:02:39Z</time>
      </trkpt>
      <trkpt lat="45.39541" lon="4.61536">
        <ele>1225</ele>
        <time>2015-07-27T14:02:43Z</time>
      </trkpt>
      <trkpt lat="45.39595" lon="4.61546">
        <ele>1227</ele>
        <time>2015-07-27T14:02:49Z</time>
      </trkpt>
      <trkpt lat="45.39632" lon="4.6156">
        <ele>1227</ele>
        <time>2015-07-27T14:02:53Z</time>
      </trkpt>
      <trkpt lat="45.39716" lon="4.61575">
        <ele>1232</ele>
        <time>2015-07-27T14:03:02Z</time>
      </trkpt>
      <trkpt lat="45.39763" lon="4.61597">
        <ele>1220</ele>
        <time>2015-07-27T14:03:07Z</time>
      </trkpt>
      <trkpt lat="45.39795" lon="4.61625">
        <ele>1216</ele>
        <time>2015-07-27T14:03:10Z</time>
      </trkpt>
      <trkpt lat="45.39844" lon="4.61687">
        <ele>1207</ele>
        <time>2015-07-27T14:03:15Z</time>
      </trkpt>
      <trkpt lat="45.39874" lon="4.61725">
        <ele>1205</ele>
        <time>2015-07-27T14:03:18Z</time>
      </trkpt>
      <trkpt lat="45.39914" lon="4.61783">
        <ele>1189</ele>
        <time>2015-07-27T14:03:22Z</time>
      </trkpt>
      <trkpt lat="45.39961" lon="4.61874">
        <ele>1185</ele>
        <time>2015-07-27T14:03:27Z</time>
      </trkpt>
      <trkpt lat="45.40009" lon="4.61958">
        <ele>1177</ele>
        <time>2015-07-27T14:03:32Z</time>
      </trkpt>
      <trkpt lat="45.40069" lon="4.62007">
        <ele>1165</ele>
        <time>2015-07-27T14:03:37Z</time>
      </trkpt>
      <trkpt lat="45.40117" lon="4.62034">
        <ele>1161</ele>
        <time>2015-07-27T14:03:42Z</time>
      </trkpt>
      <trkpt lat="45.40163" lon="4.61995">
        <ele>1173</ele>
        <time>2015-07-27T14:03:47Z</time>
      </trkpt>
      <trkpt lat="45.4021" lon="4.61932">
        <ele>1163</ele>
        <time>2015-07-27T14:03:52Z</time>
      </trkpt>
      <trkpt lat="45.40257" lon="4.61857">
        <ele>1158</ele>
        <time>2015-07-27T14:03:57Z</time>
      </trkpt>
      <trkpt lat="45.40358" lon="4.6182">
        <ele>1159</ele>
        <time>2015-07-27T14:04:04Z</time>
      </trkpt>
      <trkpt lat="45.40399" lon="4.61822">
        <ele>1157</ele>
        <time>2015-07-27T14:04:07Z</time>
      </trkpt>
      <trkpt lat="45.40505" lon="4.61844">
        <ele>1138</ele>
        <time>2015-07-27T14:04:14Z</time>
      </trkpt>
      <trkpt lat="45.4055" lon="4.6185">
        <ele>1133</ele>
        <time>2015-07-27T14:04:17Z</time>
      </trkpt>
      <trkpt lat="45.40627" lon="4.61849">
        <ele>1129</ele>
        <time>2015-07-27T14:04:22Z</time>
      </trkpt>
      <trkpt lat="45.40707" lon="4.61844">
        <ele>1122</ele>
        <time>2015-07-27T14:04:27Z</time>
      </trkpt>
      <trkpt lat="45.40803" lon="4.61874">
        <ele>1114</ele>
        <time>2015-07-27T14:04:33Z</time>
      </trkpt>
      <trkpt lat="45.40861" lon="4.6191">
        <ele>1115</ele>
        <time>2015-07-27T14:04:37Z</time>
      </trkpt>
      <trkpt lat="45.40973" lon="4.62003">
        <ele>1093</ele>
        <time>2015-07-27T14:04:45Z</time>
      </trkpt>
      <trkpt lat="45.41" lon="4.62029">
        <ele>1092</ele>
        <time>2015-07-27T14:04:47Z</time>
      </trkpt>
      <trkpt lat="45.41088" lon="4.62106">
        <ele>1090</ele>
        <time>2015-07-27T14:04:54Z</time>
      </trkpt>
      <trkpt lat="45.41137" lon="4.62149">
        <ele>1087</ele>
        <time>2015-07-27T14:04:58Z</time>
      </trkpt>
      <trkpt lat="45.41231" lon="4.623">
        <ele>1059</ele>
        <time>2015-07-27T14:05:07Z</time>
      </trkpt>
      <trkpt lat="45.41248" lon="4.62327">
        <ele>1056</ele>
        <time>2015-07-27T14:05:09Z</time>
      </trkpt>
      <trkpt lat="45.41284" lon="4.62364">
        <ele>1049</ele>
        <time>2015-07-27T14:05:14Z</time>
      </trkpt>
      <trkpt lat="45.41312" lon="4.62334">
        <ele>1047</ele>
        <time>2015-07-27T14:05:18Z</time>
      </trkpt>
      <trkpt lat="45.41349" lon="4.62283">
        <ele>1046</ele>
        <time>2015-07-27T14:05:23Z</time>
      </trkpt>
      <trkpt lat="45.41397" lon="4.62238">
        <ele>1051</ele>
        <time>2015-07-27T14:05:28Z</time>
      </trkpt>
      <trkpt lat="45.4145" lon="4.62196">
        <ele>1043</ele>
        <time>2015-07-27T14:05:33Z</time>
      </trkpt>
      <trkpt lat="45.41534" lon="4.62123">
        <ele>1042</ele>
        <time>2015-07-27T14:05:40Z</time>
      </trkpt>
      <trkpt lat="45.41571" lon="4.62091">
        <ele>1042</ele>
        <time>2015-07-27T14:05:43Z</time>
      </trkpt>
      <trkpt lat="45.41638" lon="4.62049">
        <ele>1040</ele>
        <time>2015-07-27T14:05:48Z</time>
      </trkpt>
      <trkpt lat="45.41756" lon="4.62039">
        <ele>1024</ele>
        <time>2015-07-27T14:05:56Z</time>
      </trkpt>
      <trkpt lat="45.41787" lon="4.6204">
        <ele>1023</ele>
        <time>2015-07-27T14:05:58Z</time>
      </trkpt>
      <trkpt lat="45.41909" lon="4.62068">
        <ele>1013</ele>
        <time>2015-07-27T14:06:06Z</time>
      </trkpt>
      <trkpt lat="45.41938" lon="4.62067">
        <ele>1009</ele>
        <time>2015-07-27T14:06:08Z</time>
      </trkpt>
      <trkpt lat="45.42031" lon="4.6202">
        <ele>994</ele>
        <time>2015-07-27T14:06:15Z</time>
      </trkpt>
      <trkpt lat="45.42071" lon="4.62">
        <ele>986</ele>
        <time>2015-07-27T14:06:18Z</time>
      </trkpt>
      <trkpt lat="45.42138" lon="4.61962">
        <ele>983</ele>
        <time>2015-07-27T14:06:23Z</time>
      </trkpt>
      <trkpt lat="45.42202" lon="4.6191">
        <ele>978</ele>
        <time>2015-07-27T14:06:28Z</time>
      </trkpt>
      <trkpt lat="45.42266" lon="4.61861">
        <ele>964</ele>
        <time>2015-07-27T14:06:33Z</time>
      </trkpt>
      <trkpt lat="45.42334" lon="4.61825">
        <ele>958</ele>
        <time>2015-07-27T14:06:38Z</time>
      </trkpt>
      <trkpt lat="45.42399" lon="4.61791">
        <ele>956</ele>
        <time>2015-07-27T14:06:43Z</time>
      </trkpt>
      <trkpt lat="45.42451" lon="4.61764">
        <ele>949</ele>
        <time>2015-07-27T14:06:48Z</time>
      </trkpt>
      <trkpt lat="45.42487" lon="4.61748">
        <ele>949</ele>
        <time>2015-07-27T14:06:53Z</time>
      </trkpt>
      <trkpt lat="45.42501" lon="4.61715">
        <ele>948</ele>
        <time>2015-07-27T14:06:58Z</time>
      </trkpt>
      <trkpt lat="45.42494" lon="4.61674">
        <ele>947</ele>
        <time>2015-07-27T14:07:03Z</time>
      </trkpt>
      <trkpt lat="45.42481" lon="4.6163">
        <ele>947</ele>
        <time>2015-07-27T14:07:08Z</time>
      </trkpt>
      <trkpt lat="45.42466" lon="4.61579">
        <ele>943</ele>
        <time>2015-07-27T14:07:13Z</time>
      </trkpt>
      <trkpt lat="45.42455" lon="4.61523">
        <ele>944</ele>
        <time>2015-07-27T14:07:18Z</time>
      </trkpt>
      <trkpt lat="45.42447" lon="4.61465">
        <ele>941</ele>
        <time>2015-07-27T14:07:23Z</time>
      </trkpt>
      <trkpt lat="45.4243" lon="4.61376">
        <ele>934</ele>
        <time>2015-07-27T14:07:30Z</time>
      </trkpt>
      <trkpt lat="45.42417" lon="4.61339">
        <ele>935</ele>
        <time>2015-07-27T14:07:33Z</time>
      </trkpt>
      <trkpt lat="45.42397" lon="4.61278">
        <ele>941</ele>
        <time>2015-07-27T14:07:38Z</time>
      </trkpt>
      <trkpt lat="45.4237" lon="4.61217">
        <ele>939</ele>
        <time>2015-07-27T14:07:43Z</time>
      </trkpt>
      <trkpt lat="45.42338" lon="4.61141">
        <ele>934</ele>
        <time>2015-07-27T14:07:49Z</time>
      </trkpt>
      <trkpt lat="45.42295" lon="4.61035">
        <ele>939</ele>
        <time>2015-07-27T14:07:57Z</time>
      </trkpt>
      <trkpt lat="45.4229" lon="4.6102">
        <ele>939</ele>
        <time>2015-07-27T14:07:58Z</time>
      </trkpt>
      <trkpt lat="45.42264" lon="4.60962">
        <ele>935</ele>
        <time>2015-07-27T14:08:03Z</time>
      </trkpt>
      <trkpt lat="45.42292" lon="4.6087">
        <ele>935</ele>
        <time>2015-07-27T14:08:11Z</time>
      </trkpt>
      <trkpt lat="45.42347" lon="4.60829">
        <ele>925</ele>
        <time>2015-07-27T14:08:17Z</time>
      </trkpt>
      <trkpt lat="45.42356" lon="4.60821">
        <ele>924</ele>
        <time>2015-07-27T14:08:18Z</time>
      </trkpt>
      <trkpt lat="45.42402" lon="4.60783">
        <ele>920</ele>
        <time>2015-07-27T14:08:23Z</time>
      </trkpt>
      <trkpt lat="45.4244" lon="4.60736">
        <ele>909</ele>
        <time>2015-07-27T14:08:28Z</time>
      </trkpt>
      <trkpt lat="45.42455" lon="4.60616">
        <ele>911</ele>
        <time>2015-07-27T14:08:36Z</time>
      </trkpt>
      <trkpt lat="45.42453" lon="4.60589">
        <ele>912</ele>
        <time>2015-07-27T14:08:38Z</time>
      </trkpt>
      <trkpt lat="45.42447" lon="4.60487">
        <ele>907</ele>
        <time>2015-07-27T14:08:44Z</time>
      </trkpt>
      <trkpt lat="45.42441" lon="4.6042">
        <ele>906</ele>
        <time>2015-07-27T14:08:48Z</time>
      </trkpt>
      <trkpt lat="45.42433" lon="4.60284">
        <ele>891</ele>
        <time>2015-07-27T14:08:56Z</time>
      </trkpt>
      <trkpt lat="45.42431" lon="4.60235">
        <ele>886</ele>
        <time>2015-07-27T14:08:59Z</time>
      </trkpt>
      <trkpt lat="45.42421" lon="4.60171">
        <ele>883</ele>
        <time>2015-07-27T14:09:03Z</time>
      </trkpt>
      <trkpt lat="45.42405" lon="4.60097">
        <ele>881</ele>
        <time>2015-07-27T14:09:08Z</time>
      </trkpt>
      <trkpt lat="45.4238" lon="4.59977">
        <ele>868</ele>
        <time>2015-07-27T14:09:16Z</time>
      </trkpt>
      <trkpt lat="45.42373" lon="4.59948">
        <ele>868</ele>
        <time>2015-07-27T14:09:18Z</time>
      </trkpt>
      <trkpt lat="45.42355" lon="4.59877">
        <ele>860</ele>
        <time>2015-07-27T14:09:23Z</time>
      </trkpt>
      <trkpt lat="45.42333" lon="4.59809">
        <ele>866</ele>
        <time>2015-07-27T14:09:28Z</time>
      </trkpt>
      <trkpt lat="45.42313" lon="4.59742">
        <ele>857</ele>
        <time>2015-07-27T14:09:33Z</time>
      </trkpt>
      <trkpt lat="45.42289" lon="4.59676">
        <ele>858</ele>
        <time>2015-07-27T14:09:38Z</time>
      </trkpt>
      <trkpt lat="45.42257" lon="4.59619">
        <ele>849</ele>
        <time>2015-07-27T14:09:43Z</time>
      </trkpt>
      <trkpt lat="45.42218" lon="4.59573">
        <ele>850</ele>
        <time>2015-07-27T14:09:48Z</time>
      </trkpt>
      <trkpt lat="45.4218" lon="4.59525">
        <ele>848</ele>
        <time>2015-07-27T14:09:53Z</time>
      </trkpt>
      <trkpt lat="45.42133" lon="4.59492">
        <ele>841</ele>
        <time>2015-07-27T14:09:58Z</time>
      </trkpt>
      <trkpt lat="45.42086" lon="4.59467">
        <ele>841</ele>
        <time>2015-07-27T14:10:03Z</time>
      </trkpt>
      <trkpt lat="45.42035" lon="4.5947">
        <ele>843</ele>
        <time>2015-07-27T14:10:08Z</time>
      </trkpt>
      <trkpt lat="45.41982" lon="4.59472">
        <ele>853</ele>
        <time>2015-07-27T14:10:13Z</time>
      </trkpt>
      <trkpt lat="45.41958" lon="4.59435">
        <ele>852</ele>
        <time>2015-07-27T14:10:18Z</time>
      </trkpt>
      <trkpt lat="45.4197" lon="4.59373">
        <ele>844</ele>
        <time>2015-07-27T14:10:23Z</time>
      </trkpt>
      <trkpt lat="45.41972" lon="4.59304">
        <ele>843</ele>
        <time>2015-07-27T14:10:28Z</time>
      </trkpt>
      <trkpt lat="45.41979" lon="4.5923">
        <ele>840</ele>
        <time>2015-07-27T14:10:33Z</time>
      </trkpt>
      <trkpt lat="45.41955" lon="4.59162">
        <ele>837</ele>
        <time>2015-07-27T14:10:38Z</time>
      </trkpt>
      <trkpt lat="45.41917" lon="4.5912">
        <ele>845</ele>
        <time>2015-07-27T14:10:43Z</time>
      </trkpt>
      <trkpt lat="45.41862" lon="4.59057">
        <ele>829</ele>
        <time>2015-07-27T14:10:50Z</time>
      </trkpt>
      <trkpt lat="45.41813" lon="4.59001">
        <ele>830</ele>
        <time>2015-07-27T14:10:56Z</time>
      </trkpt>
      <trkpt lat="45.41796" lon="4.58984">
        <ele>819</ele>
        <time>2015-07-27T14:10:58Z</time>
      </trkpt>
      <trkpt lat="45.41756" lon="4.58941">
        <ele>816</ele>
        <time>2015-07-27T14:11:03Z</time>
      </trkpt>
      <trkpt lat="45.41711" lon="4.58903">
        <ele>810</ele>
        <time>2015-07-27T14:11:08Z</time>
      </trkpt>
      <trkpt lat="45.41654" lon="4.58898">
        <ele>818</ele>
        <time>2015-07-27T14:11:13Z</time>
      </trkpt>
      <trkpt lat="45.41592" lon="4.58892">
        <ele>816</ele>
        <time>2015-07-27T14:11:18Z</time>
      </trkpt>
      <trkpt lat="45.41531" lon="4.58881">
        <ele>810</ele>
        <time>2015-07-27T14:11:23Z</time>
      </trkpt>
      <trkpt lat="45.41467" lon="4.58883">
        <ele>805</ele>
        <time>2015-07-27T14:11:28Z</time>
      </trkpt>
      <trkpt lat="45.41403" lon="4.58889">
        <ele>795</ele>
        <time>2015-07-27T14:11:33Z</time>
      </trkpt>
      <trkpt lat="45.41343" lon="4.58902">
        <ele>791</ele>
        <time>2015-07-27T14:11:38Z</time>
      </trkpt>
      <trkpt lat="45.41286" lon="4.58925">
        <ele>798</ele>
        <time>2015-07-27T14:11:43Z</time>
      </trkpt>
      <trkpt lat="45.41218" lon="4.58951">
        <ele>788</ele>
        <time>2015-07-27T14:11:49Z</time>
      </trkpt>
      <trkpt lat="45.41172" lon="4.58971">
        <ele>790</ele>
        <time>2015-07-27T14:11:53Z</time>
      </trkpt>
      <trkpt lat="45.41111" lon="4.59013">
        <ele>787</ele>
        <time>2015-07-27T14:11:59Z</time>
      </trkpt>
      <trkpt lat="45.4108" lon="4.59036">
        <ele>769</ele>
        <time>2015-07-27T14:12:03Z</time>
      </trkpt>
      <trkpt lat="45.41017" lon="4.59121">
        <ele>783</ele>
        <time>2015-07-27T14:12:12Z</time>
      </trkpt>
      <trkpt lat="45.41008" lon="4.59122">
        <ele>782</ele>
        <time>2015-07-27T14:12:13Z</time>
      </trkpt>
      <trkpt lat="45.40957" lon="4.59136">
        <ele>775</ele>
        <time>2015-07-27T14:12:18Z</time>
      </trkpt>
      <trkpt lat="45.40901" lon="4.59144">
        <ele>772</ele>
        <time>2015-07-27T14:12:23Z</time>
      </trkpt>
      <trkpt lat="45.40856" lon="4.59141">
        <ele>767</ele>
        <time>2015-07-27T14:12:28Z</time>
      </trkpt>
      <trkpt lat="45.40837" lon="4.59105">
        <ele>766</ele>
        <time>2015-07-27T14:12:33Z</time>
      </trkpt>
      <trkpt lat="45.40862" lon="4.59083">
        <ele>769</ele>
        <time>2015-07-27T14:12:38Z</time>
      </trkpt>
      <trkpt lat="45.40911" lon="4.59098">
        <ele>763</ele>
        <time>2015-07-27T14:12:44Z</time>
      </trkpt>
      <trkpt lat="45.40943" lon="4.59094">
        <ele>767</ele>
        <time>2015-07-27T14:12:48Z</time>
      </trkpt>
      <trkpt lat="45.40974" lon="4.5905">
        <ele>757</ele>
        <time>2015-07-27T14:12:53Z</time>
      </trkpt>
      <trkpt lat="45.41016" lon="4.59004">
        <ele>754</ele>
        <time>2015-07-27T14:12:58Z</time>
      </trkpt>
      <trkpt lat="45.41063" lon="4.58946">
        <ele>747</ele>
        <time>2015-07-27T14:13:03Z</time>
      </trkpt>
      <trkpt lat="45.41116" lon="4.58889">
        <ele>743</ele>
        <time>2015-07-27T14:13:08Z</time>
      </trkpt>
      <trkpt lat="45.41165" lon="4.58836">
        <ele>734</ele>
        <time>2015-07-27T14:13:13Z</time>
      </trkpt>
      <trkpt lat="45.41204" lon="4.58788">
        <ele>737</ele>
        <time>2015-07-27T14:13:18Z</time>
      </trkpt>
      <trkpt lat="45.41234" lon="4.58754">
        <ele>734</ele>
        <time>2015-07-27T14:13:23Z</time>
      </trkpt>
      <trkpt lat="45.41265" lon="4.58745">
        <ele>730</ele>
        <time>2015-07-27T14:13:28Z</time>
      </trkpt>
      <trkpt lat="45.41286" lon="4.58732">
        <ele>730</ele>
        <time>2015-07-27T14:13:33Z</time>
      </trkpt>
      <trkpt lat="45.41303" lon="4.58725">
        <ele>731</ele>
        <time>2015-07-27T14:13:38Z</time>
      </trkpt>
      <trkpt lat="45.41333" lon="4.58705">
        <ele>728</ele>
        <time>2015-07-27T14:13:47Z</time>
      </trkpt>
      <trkpt lat="45.41336" lon="4.58702">
        <ele>730</ele>
        <time>2015-07-27T14:13:48Z</time>
      </trkpt>
      <trkpt lat="45.41357" lon="4.58696">
        <ele>729</ele>
        <time>2015-07-27T14:13:53Z</time>
      </trkpt>
      <trkpt lat="45.41377" lon="4.5869">
        <ele>730</ele>
        <time>2015-07-27T14:13:58Z</time>
      </trkpt>
      <trkpt lat="45.41399" lon="4.58688">
        <ele>730</ele>
        <time>2015-07-27T14:14:03Z</time>
      </trkpt>
      <trkpt lat="45.41422" lon="4.58685">
        <ele>733</ele>
        <time>2015-07-27T14:14:08Z</time>
      </trkpt>
      <trkpt lat="45.41441" lon="4.58681">
        <ele>736</ele>
        <time>2015-07-27T14:14:13Z</time>
      </trkpt>
      <trkpt lat="45.41461" lon="4.58675">
        <ele>737</ele>
        <time>2015-07-27T14:14:18Z</time>
      </trkpt>
      <trkpt lat="45.41488" lon="4.58671">
        <ele>735</ele>
        <time>2015-07-27T14:14:25Z</time>
      </trkpt>
      <trkpt lat="45.41498" lon="4.58667">
        <ele>731</ele>
        <time>2015-07-27T14:14:28Z</time>
      </trkpt>
      <trkpt lat="45.41515" lon="4.58665">
        <ele>726</ele>
        <time>2015-07-27T14:14:33Z</time>
      </trkpt>
      <trkpt lat="45.41533" lon="4.58664">
        <ele>724</ele>
        <time>2015-07-27T14:14:38Z</time>
      </trkpt>
      <trkpt lat="45.41544" lon="4.58661">
        <ele>724</ele>
        <time>2015-07-27T14:14:43Z</time>
      </trkpt>
      <trkpt lat="45.41575" lon="4.5866">
        <ele>730</ele>
        <time>2015-07-27T14:14:52Z</time>
      </trkpt>
      <trkpt lat="45.41586" lon="4.58658">
        <ele>732</ele>
        <time>2015-07-27T14:14:56Z</time>
      </trkpt>
      <trkpt lat="45.41595" lon="4.58662">
        <ele>732</ele>
        <time>2015-07-27T14:14:58Z</time>
      </trkpt>
      <trkpt lat="45.41631" lon="4.5867">
        <ele>748</ele>
        <time>2015-07-27T14:15:07Z</time>
      </trkpt>
      <trkpt lat="45.41643" lon="4.58666">
        <ele>731</ele>
        <time>2015-07-27T14:15:11Z</time>
      </trkpt>
      <trkpt lat="45.4166" lon="4.58661">
        <ele>735</ele>
        <time>2015-07-27T14:15:16Z</time>
      </trkpt>
      <trkpt lat="45.41669" lon="4.58658">
        <ele>736</ele>
        <time>2015-07-27T14:15:18Z</time>
      </trkpt>
      <trkpt lat="45.4169" lon="4.58648">
        <ele>730</ele>
        <time>2015-07-27T14:15:24Z</time>
      </trkpt>
      <trkpt lat="45.41705" lon="4.58643">
        <ele>728</ele>
        <time>2015-07-27T14:15:28Z</time>
      </trkpt>
      <trkpt lat="45.41734" lon="4.5864">
        <ele>728</ele>
        <time>2015-07-27T14:15:33Z</time>
      </trkpt>
      <trkpt lat="45.41767" lon="4.58634">
        <ele>726</ele>
        <time>2015-07-27T14:15:38Z</time>
      </trkpt>
      <trkpt lat="45.41806" lon="4.58625">
        <ele>724</ele>
        <time>2015-07-27T14:15:43Z</time>
      </trkpt>
      <trkpt lat="45.41848" lon="4.5862">
        <ele>719</ele>
        <time>2015-07-27T14:15:48Z</time>
      </trkpt>
      <trkpt lat="45.41893" lon="4.58628">
        <ele>717</ele>
        <time>2015-07-27T14:15:53Z</time>
      </trkpt>
      <trkpt lat="45.41942" lon="4.58645">
        <ele>711</ele>
        <time>2015-07-27T14:15:58Z</time>
      </trkpt>
      <trkpt lat="45.41994" lon="4.58675">
        <ele>716</ele>
        <time>2015-07-27T14:16:03Z</time>
      </trkpt>
      <trkpt lat="45.4205" lon="4.5871">
        <ele>712</ele>
        <time>2015-07-27T14:16:08Z</time>
      </trkpt>
      <trkpt lat="45.42107" lon="4.58748">
        <ele>702</ele>
        <time>2015-07-27T14:16:13Z</time>
      </trkpt>
      <trkpt lat="45.42162" lon="4.58789">
        <ele>710</ele>
        <time>2015-07-27T14:16:18Z</time>
      </trkpt>
      <trkpt lat="45.42206" lon="4.58851">
        <ele>704</ele>
        <time>2015-07-27T14:16:23Z</time>
      </trkpt>
      <trkpt lat="45.42256" lon="4.58906">
        <ele>688</ele>
        <time>2015-07-27T14:16:28Z</time>
      </trkpt>
      <trkpt lat="45.42283" lon="4.58979">
        <ele>691</ele>
        <time>2015-07-27T14:16:33Z</time>
      </trkpt>
      <trkpt lat="45.42306" lon="4.59049">
        <ele>697</ele>
        <time>2015-07-27T14:16:38Z</time>
      </trkpt>
      <trkpt lat="45.42345" lon="4.59048">
        <ele>690</ele>
        <time>2015-07-27T14:16:43Z</time>
      </trkpt>
      <trkpt lat="45.42365" lon="4.58984">
        <ele>677</ele>
        <time>2015-07-27T14:16:48Z</time>
      </trkpt>
      <trkpt lat="45.42388" lon="4.58935">
        <ele>674</ele>
        <time>2015-07-27T14:16:53Z</time>
      </trkpt>
      <trkpt lat="45.42416" lon="4.58886">
        <ele>662</ele>
        <time>2015-07-27T14:16:58Z</time>
      </trkpt>
      <trkpt lat="45.42463" lon="4.58873">
        <ele>656</ele>
        <time>2015-07-27T14:17:03Z</time>
      </trkpt>
      <trkpt lat="45.42524" lon="4.5886">
        <ele>652</ele>
        <time>2015-07-27T14:17:08Z</time>
      </trkpt>
      <trkpt lat="45.4259" lon="4.58842">
        <ele>646</ele>
        <time>2015-07-27T14:17:13Z</time>
      </trkpt>
      <trkpt lat="45.42645" lon="4.58851">
        <ele>645</ele>
        <time>2015-07-27T14:17:18Z</time>
      </trkpt>
      <trkpt lat="45.42691" lon="4.58881">
        <ele>640</ele>
        <time>2015-07-27T14:17:23Z</time>
      </trkpt>
      <trkpt lat="45.42718" lon="4.58944">
        <ele>649</ele>
        <time>2015-07-27T14:17:28Z</time>
      </trkpt>
      <trkpt lat="45.42721" lon="4.5901">
        <ele>658</ele>
        <time>2015-07-27T14:17:33Z</time>
      </trkpt>
      <trkpt lat="45.42726" lon="4.59069">
        <ele>660</ele>
        <time>2015-07-27T14:17:38Z</time>
      </trkpt>
      <trkpt lat="45.42747" lon="4.59137">
        <ele>667</ele>
        <time>2015-07-27T14:17:46Z</time>
      </trkpt>
      <trkpt lat="45.42752" lon="4.59149">
        <ele>666</ele>
        <time>2015-07-27T14:17:48Z</time>
      </trkpt>
      <trkpt lat="45.42754" lon="4.59173">
        <ele>667</ele>
        <time>2015-07-27T14:17:53Z</time>
      </trkpt>
      <trkpt lat="45.42764" lon="4.59183">
        <ele>672</ele>
        <time>2015-07-27T14:17:58Z</time>
      </trkpt>
      <trkpt lat="45.42774" lon="4.59171">
        <ele>673</ele>
        <time>2015-07-27T14:18:04Z</time>
      </trkpt>
      <trkpt lat="45.42777" lon="4.59149">
        <ele>670</ele>
        <time>2015-07-27T14:18:09Z</time>
      </trkpt>
      <trkpt lat="45.42781" lon="4.59109">
        <ele>668</ele>
        <time>2015-07-27T14:18:17Z</time>
      </trkpt>
      <trkpt lat="45.42782" lon="4.59103">
        <ele>668</ele>
        <time>2015-07-27T14:18:18Z</time>
      </trkpt>
      <trkpt lat="45.4278" lon="4.59079">
        <ele>661</ele>
        <time>2015-07-27T14:18:23Z</time>
      </trkpt>
      <trkpt lat="45.42781" lon="4.59052">
        <ele>661</ele>
        <time>2015-07-27T14:18:28Z</time>
      </trkpt>
      <trkpt lat="45.42791" lon="4.59026">
        <ele>661</ele>
        <time>2015-07-27T14:18:33Z</time>
      </trkpt>
      <trkpt lat="45.42804" lon="4.58982">
        <ele>657</ele>
        <time>2015-07-27T14:18:41Z</time>
      </trkpt>
      <trkpt lat="45.42805" lon="4.58968">
        <ele>656</ele>
        <time>2015-07-27T14:18:43Z</time>
      </trkpt>
      <trkpt lat="45.42811" lon="4.58932">
        <ele>655</ele>
        <time>2015-07-27T14:18:48Z</time>
      </trkpt>
      <trkpt lat="45.4282" lon="4.58884">
        <ele>649</ele>
        <time>2015-07-27T14:18:54Z</time>
      </trkpt>
      <trkpt lat="45.42821" lon="4.58841">
        <ele>649</ele>
        <time>2015-07-27T14:18:59Z</time>
      </trkpt>
      <trkpt lat="45.42823" lon="4.58814">
        <ele>642</ele>
        <time>2015-07-27T14:19:02Z</time>
      </trkpt>
      <trkpt lat="45.4283" lon="4.58776">
        <ele>638</ele>
        <time>2015-07-27T14:19:06Z</time>
      </trkpt>
      <trkpt lat="45.42846" lon="4.58749">
        <ele>638</ele>
        <time>2015-07-27T14:19:10Z</time>
      </trkpt>
      <trkpt lat="45.4288" lon="4.58731">
        <ele>635</ele>
        <time>2015-07-27T14:19:15Z</time>
      </trkpt>
      <trkpt lat="45.4292" lon="4.58745">
        <ele>642</ele>
        <time>2015-07-27T14:19:20Z</time>
      </trkpt>
      <trkpt lat="45.42989" lon="4.58796">
        <ele>648</ele>
        <time>2015-07-27T14:19:29Z</time>
      </trkpt>
      <trkpt lat="45.42997" lon="4.58802">
        <ele>649</ele>
        <time>2015-07-27T14:19:30Z</time>
      </trkpt>
      <trkpt lat="45.43029" lon="4.58785">
        <ele>650</ele>
        <time>2015-07-27T14:19:35Z</time>
      </trkpt>
      <trkpt lat="45.4304" lon="4.58708">
        <ele>645</ele>
        <time>2015-07-27T14:19:42Z</time>
      </trkpt>
      <trkpt lat="45.43041" lon="4.58685">
        <ele>644</ele>
        <time>2015-07-27T14:19:44Z</time>
      </trkpt>
      <trkpt lat="45.43006" lon="4.58587">
        <ele>637</ele>
        <time>2015-07-27T14:19:53Z</time>
      </trkpt>
      <trkpt lat="45.43001" lon="4.58578">
        <ele>638</ele>
        <time>2015-07-27T14:19:54Z</time>
      </trkpt>
      <trkpt lat="45.42979" lon="4.58523">
        <ele>629</ele>
        <time>2015-07-27T14:19:59Z</time>
      </trkpt>
      <trkpt lat="45.42967" lon="4.58467">
        <ele>627</ele>
        <time>2015-07-27T14:20:04Z</time>
      </trkpt>
      <trkpt lat="45.42974" lon="4.58371">
        <ele>622</ele>
        <time>2015-07-27T14:20:12Z</time>
      </trkpt>
      <trkpt lat="45.42977" lon="4.58346">
        <ele>623</ele>
        <time>2015-07-27T14:20:14Z</time>
      </trkpt>
      <trkpt lat="45.4299" lon="4.58284">
        <ele>614</ele>
        <time>2015-07-27T14:20:19Z</time>
      </trkpt>
      <trkpt lat="45.43011" lon="4.58223">
        <ele>623</ele>
        <time>2015-07-27T14:20:24Z</time>
      </trkpt>
      <trkpt lat="45.43033" lon="4.58162">
        <ele>609</ele>
        <time>2015-07-27T14:20:29Z</time>
      </trkpt>
      <trkpt lat="45.43069" lon="4.5811">
        <ele>610</ele>
        <time>2015-07-27T14:20:34Z</time>
      </trkpt>
      <trkpt lat="45.43118" lon="4.58068">
        <ele>608</ele>
        <time>2015-07-27T14:20:39Z</time>
      </trkpt>
      <trkpt lat="45.43171" lon="4.58039">
        <ele>611</ele>
        <time>2015-07-27T14:20:44Z</time>
      </trkpt>
      <trkpt lat="45.43227" lon="4.58021">
        <ele>610</ele>
        <time>2015-07-27T14:20:49Z</time>
      </trkpt>
      <trkpt lat="45.43278" lon="4.57983">
        <ele>596</ele>
        <time>2015-07-27T14:20:54Z</time>
      </trkpt>
      <trkpt lat="45.43354" lon="4.57925">
        <ele>595</ele>
        <time>2015-07-27T14:21:01Z</time>
      </trkpt>
      <trkpt lat="45.4338" lon="4.57901">
        <ele>586</ele>
        <time>2015-07-27T14:21:04Z</time>
      </trkpt>
      <trkpt lat="45.43414" lon="4.57841">
        <ele>581</ele>
        <time>2015-07-27T14:21:09Z</time>
      </trkpt>
      <trkpt lat="45.4347" lon="4.57819">
        <ele>575</ele>
        <time>2015-07-27T14:21:14Z</time>
      </trkpt>
      <trkpt lat="45.43524" lon="4.57828">
        <ele>578</ele>
        <time>2015-07-27T14:21:19Z</time>
      </trkpt>
      <trkpt lat="45.43572" lon="4.5784">
        <ele>584</ele>
        <time>2015-07-27T14:21:24Z</time>
      </trkpt>
      <trkpt lat="45.43616" lon="4.57846">
        <ele>582</ele>
        <time>2015-07-27T14:21:29Z</time>
      </trkpt>
      <trkpt lat="45.43648" lon="4.57871">
        <ele>583</ele>
        <time>2015-07-27T14:21:34Z</time>
      </trkpt>
      <trkpt lat="45.43684" lon="4.57889">
        <ele>580</ele>
        <time>2015-07-27T14:21:39Z</time>
      </trkpt>
      <trkpt lat="45.43723" lon="4.57894">
        <ele>579</ele>
        <time>2015-07-27T14:21:44Z</time>
      </trkpt>
      <trkpt lat="45.43759" lon="4.57917">
        <ele>580</ele>
        <time>2015-07-27T14:21:49Z</time>
      </trkpt>
      <trkpt lat="45.43811" lon="4.57963">
        <ele>577</ele>
        <time>2015-07-27T14:21:56Z</time>
      </trkpt>
      <trkpt lat="45.43842" lon="4.57992">
        <ele>572</ele>
        <time>2015-07-27T14:22:00Z</time>
      </trkpt>
      <trkpt lat="45.43867" lon="4.58029">
        <ele>573</ele>
        <time>2015-07-27T14:22:04Z</time>
      </trkpt>
      <trkpt lat="45.4389" lon="4.58058">
        <ele>573</ele>
        <time>2015-07-27T14:22:08Z</time>
      </trkpt>
      <trkpt lat="45.43933" lon="4.58084">
        <ele>570</ele>
        <time>2015-07-27T14:22:13Z</time>
      </trkpt>
      <trkpt lat="45.43979" lon="4.58112">
        <ele>567</ele>
        <time>2015-07-27T14:22:18Z</time>
      </trkpt>
      <trkpt lat="45.44035" lon="4.58134">
        <ele>558</ele>
        <time>2015-07-27T14:22:23Z</time>
      </trkpt>
      <trkpt lat="45.4409" lon="4.58158">
        <ele>552</ele>
        <time>2015-07-27T14:22:28Z</time>
      </trkpt>
      <trkpt lat="45.4415" lon="4.58196">
        <ele>551</ele>
        <time>2015-07-27T14:22:33Z</time>
      </trkpt>
      <trkpt lat="45.44214" lon="4.58238">
        <ele>541</ele>
        <time>2015-07-27T14:22:38Z</time>
      </trkpt>
      <trkpt lat="45.44274" lon="4.58289">
        <ele>539</ele>
        <time>2015-07-27T14:22:43Z</time>
      </trkpt>
      <trkpt lat="45.44311" lon="4.58323">
        <ele>537</ele>
        <time>2015-07-27T14:22:48Z</time>
      </trkpt>
      <trkpt lat="45.44318" lon="4.58289">
        <ele>535</ele>
        <time>2015-07-27T14:22:53Z</time>
      </trkpt>
      <trkpt lat="45.44293" lon="4.58251">
        <ele>535</ele>
        <time>2015-07-27T14:22:58Z</time>
      </trkpt>
      <trkpt lat="45.44269" lon="4.582">
        <ele>527</ele>
        <time>2015-07-27T14:23:03Z</time>
      </trkpt>
      <trkpt lat="45.44241" lon="4.58146">
        <ele>528</ele>
        <time>2015-07-27T14:23:08Z</time>
      </trkpt>
      <trkpt lat="45.44216" lon="4.58102">
        <ele>527</ele>
        <time>2015-07-27T14:23:13Z</time>
      </trkpt>
      <trkpt lat="45.44239" lon="4.58078">
        <ele>519</ele>
        <time>2015-07-27T14:23:18Z</time>
      </trkpt>
      <trkpt lat="45.44273" lon="4.58103">
        <ele>517</ele>
        <time>2015-07-27T14:23:23Z</time>
      </trkpt>
      <trkpt lat="45.44311" lon="4.5814">
        <ele>516</ele>
        <time>2015-07-27T14:23:28Z</time>
      </trkpt>
      <trkpt lat="45.44356" lon="4.58184">
        <ele>514</ele>
        <time>2015-07-27T14:23:33Z</time>
      </trkpt>
      <trkpt lat="45.44407" lon="4.582">
        <ele>511</ele>
        <time>2015-07-27T14:23:38Z</time>
      </trkpt>
      <trkpt lat="45.4443" lon="4.58145">
        <ele>499</ele>
        <time>2015-07-27T14:23:43Z</time>
      </trkpt>
      <trkpt lat="45.44399" lon="4.58099">
        <ele>503</ele>
        <time>2015-07-27T14:23:48Z</time>
      </trkpt>
      <trkpt lat="45.44362" lon="4.58058">
        <ele>500</ele>
        <time>2015-07-27T14:23:53Z</time>
      </trkpt>
      <trkpt lat="45.4437" lon="4.57994">
        <ele>494</ele>
        <time>2015-07-27T14:23:58Z</time>
      </trkpt>
      <trkpt lat="45.4442" lon="4.57993">
        <ele>487</ele>
        <time>2015-07-27T14:24:03Z</time>
      </trkpt>
      <trkpt lat="45.44502" lon="4.58074">
        <ele>486</ele>
        <time>2015-07-27T14:24:12Z</time>
      </trkpt>
      <trkpt lat="45.44539" lon="4.58119">
        <ele>485</ele>
        <time>2015-07-27T14:24:16Z</time>
      </trkpt>
      <trkpt lat="45.4458" lon="4.58179">
        <ele>483</ele>
        <time>2015-07-27T14:24:21Z</time>
      </trkpt>
      <trkpt lat="45.4459" lon="4.58243">
        <ele>480</ele>
        <time>2015-07-27T14:24:25Z</time>
      </trkpt>
      <trkpt lat="45.44595" lon="4.58288">
        <ele>477</ele>
        <time>2015-07-27T14:24:28Z</time>
      </trkpt>
      <trkpt lat="45.44632" lon="4.58337">
        <ele>475</ele>
        <time>2015-07-27T14:24:33Z</time>
      </trkpt>
      <trkpt lat="45.44674" lon="4.58352">
        <ele>466</ele>
        <time>2015-07-27T14:24:37Z</time>
      </trkpt>
      <trkpt lat="45.44712" lon="4.58355">
        <ele>466</ele>
        <time>2015-07-27T14:24:42Z</time>
      </trkpt>
      <trkpt lat="45.44727" lon="4.58379">
        <ele>466</ele>
        <time>2015-07-27T14:24:47Z</time>
      </trkpt>
      <trkpt lat="45.44741" lon="4.58403">
        <ele>467</ele>
        <time>2015-07-27T14:24:52Z</time>
      </trkpt>
      <trkpt lat="45.44754" lon="4.58417">
        <ele>467</ele>
        <time>2015-07-27T14:24:57Z</time>
      </trkpt>
      <trkpt lat="45.44768" lon="4.58426">
        <ele>472</ele>
        <time>2015-07-27T14:25:02Z</time>
      </trkpt>
      <trkpt lat="45.44781" lon="4.58436">
        <ele>474</ele>
        <time>2015-07-27T14:25:07Z</time>
      </trkpt>
      <trkpt lat="45.44795" lon="4.58445">
        <ele>475</ele>
        <time>2015-07-27T14:25:12Z</time>
      </trkpt>
      <trkpt lat="45.44811" lon="4.58452">
        <ele>475</ele>
        <time>2015-07-27T14:25:17Z</time>
      </trkpt>
      <trkpt lat="45.44826" lon="4.5846">
        <ele>475</ele>
        <time>2015-07-27T14:25:22Z</time>
      </trkpt>
      <trkpt lat="45.44842" lon="4.58467">
        <ele>472</ele>
        <time>2015-07-27T14:25:27Z</time>
      </trkpt>
      <trkpt lat="45.44858" lon="4.58471">
        <ele>472</ele>
        <time>2015-07-27T14:25:32Z</time>
      </trkpt>
      <trkpt lat="45.44873" lon="4.58476">
        <ele>472</ele>
        <time>2015-07-27T14:25:37Z</time>
      </trkpt>
      <trkpt lat="45.44888" lon="4.5848">
        <ele>472</ele>
        <time>2015-07-27T14:25:42Z</time>
      </trkpt>
      <trkpt lat="45.44903" lon="4.58488">
        <ele>473</ele>
        <time>2015-07-27T14:25:47Z</time>
      </trkpt>
      <trkpt lat="45.4492" lon="4.58493">
        <ele>474</ele>
        <time>2015-07-27T14:25:52Z</time>
      </trkpt>
      <trkpt lat="45.44936" lon="4.58501">
        <ele>482</ele>
        <time>2015-07-27T14:25:57Z</time>
      </trkpt>
      <trkpt lat="45.44952" lon="4.58504">
        <ele>483</ele>
        <time>2015-07-27T14:26:02Z</time>
      </trkpt>
      <trkpt lat="45.44966" lon="4.5851">
        <ele>482</ele>
        <time>2015-07-27T14:26:07Z</time>
      </trkpt>
      <trkpt lat="45.44981" lon="4.58514">
        <ele>481</ele>
        <time>2015-07-27T14:26:12Z</time>
      </trkpt>
      <trkpt lat="45.44997" lon="4.58518">
        <ele>480</ele>
        <time>2015-07-27T14:26:17Z</time>
      </trkpt>
      <trkpt lat="45.45012" lon="4.5852">
        <ele>482</ele>
        <time>2015-07-27T14:26:22Z</time>
      </trkpt>
      <trkpt lat="45.45028" lon="4.58522">
        <ele>485</ele>
        <time>2015-07-27T14:26:27Z</time>
      </trkpt>
      <trkpt lat="45.45043" lon="4.58519">
        <ele>486</ele>
        <time>2015-07-27T14:26:32Z</time>
      </trkpt>
      <trkpt lat="45.45059" lon="4.58512">
        <ele>485</ele>
        <time>2015-07-27T14:26:37Z</time>
      </trkpt>
      <trkpt lat="45.45076" lon="4.58504">
        <ele>483</ele>
        <time>2015-07-27T14:26:42Z</time>
      </trkpt>
      <trkpt lat="45.45093" lon="4.58494">
        <ele>480</ele>
        <time>2015-07-27T14:26:47Z</time>
      </trkpt>
      <trkpt lat="45.45109" lon="4.58482">
        <ele>479</ele>
        <time>2015-07-27T14:26:52Z</time>
      </trkpt>
      <trkpt lat="45.45125" lon="4.5847">
        <ele>479</ele>
        <time>2015-07-27T14:26:57Z</time>
      </trkpt>
      <trkpt lat="45.4514" lon="4.5846">
        <ele>480</ele>
        <time>2015-07-27T14:27:02Z</time>
      </trkpt>
      <trkpt lat="45.45157" lon="4.58453">
        <ele>479</ele>
        <time>2015-07-27T14:27:07Z</time>
      </trkpt>
      <trkpt lat="45.45176" lon="4.58447">
        <ele>486</ele>
        <time>2015-07-27T14:27:12Z</time>
      </trkpt>
      <trkpt lat="45.45193" lon="4.58443">
        <ele>486</ele>
        <time>2015-07-27T14:27:17Z</time>
      </trkpt>
      <trkpt lat="45.45211" lon="4.58439">
        <ele>486</ele>
        <time>2015-07-27T14:27:22Z</time>
      </trkpt>
      <trkpt lat="45.4523" lon="4.58442">
        <ele>487</ele>
        <time>2015-07-27T14:27:27Z</time>
      </trkpt>
      <trkpt lat="45.4525" lon="4.58449">
        <ele>488</ele>
        <time>2015-07-27T14:27:32Z</time>
      </trkpt>
      <trkpt lat="45.45267" lon="4.58454">
        <ele>491</ele>
        <time>2015-07-27T14:27:37Z</time>
      </trkpt>
      <trkpt lat="45.45285" lon="4.58458">
        <ele>492</ele>
        <time>2015-07-27T14:27:42Z</time>
      </trkpt>
      <trkpt lat="45.45303" lon="4.58461">
        <ele>492</ele>
        <time>2015-07-27T14:27:47Z</time>
      </trkpt>
      <trkpt lat="45.45321" lon="4.58459">
        <ele>492</ele>
        <time>2015-07-27T14:27:52Z</time>
      </trkpt>
      <trkpt lat="45.4534" lon="4.58458">
        <ele>491</ele>
        <time>2015-07-27T14:27:57Z</time>
      </trkpt>
      <trkpt lat="45.4536" lon="4.5846">
        <ele>492</ele>
        <time>2015-07-27T14:28:02Z</time>
      </trkpt>
      <trkpt lat="45.45378" lon="4.58457">
        <ele>491</ele>
        <time>2015-07-27T14:28:07Z</time>
      </trkpt>
      <trkpt lat="45.45398" lon="4.58456">
        <ele>491</ele>
        <time>2015-07-27T14:28:12Z</time>
      </trkpt>
      <trkpt lat="45.45417" lon="4.58455">
        <ele>490</ele>
        <time>2015-07-27T14:28:17Z</time>
      </trkpt>
      <trkpt lat="45.45437" lon="4.58455">
        <ele>490</ele>
        <time>2015-07-27T14:28:22Z</time>
      </trkpt>
      <trkpt lat="45.45457" lon="4.58456">
        <ele>490</ele>
        <time>2015-07-27T14:28:27Z</time>
      </trkpt>
      <trkpt lat="45.45477" lon="4.58458">
        <ele>490</ele>
        <time>2015-07-27T14:28:32Z</time>
      </trkpt>
      <trkpt lat="45.45496" lon="4.58462">
        <ele>490</ele>
        <time>2015-07-27T14:28:37Z</time>
      </trkpt>
      <trkpt lat="45.45516" lon="4.58471">
        <ele>486</ele>
        <time>2015-07-27T14:28:42Z</time>
      </trkpt>
      <trkpt lat="45.45534" lon="4.58488">
        <ele>486</ele>
        <time>2015-07-27T14:28:47Z</time>
      </trkpt>
      <trkpt lat="45.45549" lon="4.58508">
        <ele>500</ele>
        <time>2015-07-27T14:28:52Z</time>
      </trkpt>
      <trkpt lat="45.45564" lon="4.58529">
        <ele>501</ele>
        <time>2015-07-27T14:28:57Z</time>
      </trkpt>
      <trkpt lat="45.45579" lon="4.58546">
        <ele>502</ele>
        <time>2015-07-27T14:29:02Z</time>
      </trkpt>
      <trkpt lat="45.45596" lon="4.58563">
        <ele>497</ele>
        <time>2015-07-27T14:29:07Z</time>
      </trkpt>
      <trkpt lat="45.45615" lon="4.58574">
        <ele>496</ele>
        <time>2015-07-27T14:29:12Z</time>
      </trkpt>
      <trkpt lat="45.45635" lon="4.58578">
        <ele>495</ele>
        <time>2015-07-27T14:29:17Z</time>
      </trkpt>
      <trkpt lat="45.45657" lon="4.58582">
        <ele>495</ele>
        <time>2015-07-27T14:29:22Z</time>
      </trkpt>
      <trkpt lat="45.45677" lon="4.58592">
        <ele>496</ele>
        <time>2015-07-27T14:29:27Z</time>
      </trkpt>
      <trkpt lat="45.45694" lon="4.5861">
        <ele>496</ele>
        <time>2015-07-27T14:29:32Z</time>
      </trkpt>
      <trkpt lat="45.45705" lon="4.5863">
        <ele>497</ele>
        <time>2015-07-27T14:29:37Z</time>
      </trkpt>
      <trkpt lat="45.45718" lon="4.58666">
        <ele>497</ele>
        <time>2015-07-27T14:29:44Z</time>
      </trkpt>
      <trkpt lat="45.45723" lon="4.58684">
        <ele>502</ele>
        <time>2015-07-27T14:29:47Z</time>
      </trkpt>
      <trkpt lat="45.45726" lon="4.58736">
        <ele>502</ele>
        <time>2015-07-27T14:29:56Z</time>
      </trkpt>
      <trkpt lat="45.45724" lon="4.58743">
        <ele>502</ele>
        <time>2015-07-27T14:29:57Z</time>
      </trkpt>
      <trkpt lat="45.45717" lon="4.58775">
        <ele>504</ele>
        <time>2015-07-27T14:30:03Z</time>
      </trkpt>
      <trkpt lat="45.4571" lon="4.58796">
        <ele>504</ele>
        <time>2015-07-27T14:30:07Z</time>
      </trkpt>
      <trkpt lat="45.457" lon="4.58823">
        <ele>505</ele>
        <time>2015-07-27T14:30:12Z</time>
      </trkpt>
      <trkpt lat="45.45683" lon="4.58854">
        <ele>504</ele>
        <time>2015-07-27T14:30:18Z</time>
      </trkpt>
      <trkpt lat="45.45672" lon="4.58872">
        <ele>503</ele>
        <time>2015-07-27T14:30:22Z</time>
      </trkpt>
      <trkpt lat="45.45657" lon="4.58893">
        <ele>516</ele>
        <time>2015-07-27T14:30:27Z</time>
      </trkpt>
      <trkpt lat="45.45643" lon="4.58915">
        <ele>516</ele>
        <time>2015-07-27T14:30:32Z</time>
      </trkpt>
      <trkpt lat="45.45634" lon="4.58938">
        <ele>517</ele>
        <time>2015-07-27T14:30:37Z</time>
      </trkpt>
      <trkpt lat="45.45633" lon="4.58966">
        <ele>517</ele>
        <time>2015-07-27T14:30:42Z</time>
      </trkpt>
      <trkpt lat="45.45636" lon="4.58991">
        <ele>516</ele>
        <time>2015-07-27T14:30:47Z</time>
      </trkpt>
      <trkpt lat="45.45642" lon="4.59017">
        <ele>517</ele>
        <time>2015-07-27T14:30:52Z</time>
      </trkpt>
      <trkpt lat="45.45647" lon="4.59043">
        <ele>518</ele>
        <time>2015-07-27T14:30:57Z</time>
      </trkpt>
      <trkpt lat="45.4565" lon="4.5907">
        <ele>517</ele>
        <time>2015-07-27T14:31:02Z</time>
      </trkpt>
      <trkpt lat="45.45651" lon="4.59096">
        <ele>518</ele>
        <time>2015-07-27T14:31:07Z</time>
      </trkpt>
      <trkpt lat="45.45649" lon="4.59124">
        <ele>519</ele>
        <time>2015-07-27T14:31:12Z</time>
      </trkpt>
      <trkpt lat="45.45643" lon="4.59151">
        <ele>519</ele>
        <time>2015-07-27T14:31:17Z</time>
      </trkpt>
      <trkpt lat="45.45633" lon="4.59188">
        <ele>519</ele>
        <time>2015-07-27T14:31:24Z</time>
      </trkpt>
      <trkpt lat="45.45629" lon="4.59204">
        <ele>520</ele>
        <time>2015-07-27T14:31:27Z</time>
      </trkpt>
      <trkpt lat="45.45624" lon="4.59229">
        <ele>520</ele>
        <time>2015-07-27T14:31:32Z</time>
      </trkpt>
      <trkpt lat="45.45614" lon="4.59264">
        <ele>520</ele>
        <time>2015-07-27T14:31:39Z</time>
      </trkpt>
      <trkpt lat="45.45607" lon="4.59278">
        <ele>520</ele>
        <time>2015-07-27T14:31:42Z</time>
      </trkpt>
      <trkpt lat="45.45595" lon="4.59299">
        <ele>520</ele>
        <time>2015-07-27T14:31:47Z</time>
      </trkpt>
      <trkpt lat="45.45582" lon="4.59321">
        <ele>529</ele>
        <time>2015-07-27T14:31:52Z</time>
      </trkpt>
      <trkpt lat="45.45568" lon="4.59341">
        <ele>527</ele>
        <time>2015-07-27T14:31:57Z</time>
      </trkpt>
      <trkpt lat="45.45554" lon="4.59362">
        <ele>529</ele>
        <time>2015-07-27T14:32:02Z</time>
      </trkpt>
      <trkpt lat="45.45542" lon="4.59382">
        <ele>529</ele>
        <time>2015-07-27T14:32:07Z</time>
      </trkpt>
      <trkpt lat="45.45528" lon="4.59402">
        <ele>530</ele>
        <time>2015-07-27T14:32:12Z</time>
      </trkpt>
      <trkpt lat="45.45515" lon="4.59424">
        <ele>528</ele>
        <time>2015-07-27T14:32:17Z</time>
      </trkpt>
      <trkpt lat="45.45502" lon="4.59444">
        <ele>526</ele>
        <time>2015-07-27T14:32:22Z</time>
      </trkpt>
      <trkpt lat="45.4549" lon="4.59466">
        <ele>537</ele>
        <time>2015-07-27T14:32:27Z</time>
      </trkpt>
      <trkpt lat="45.45474" lon="4.59485">
        <ele>537</ele>
        <time>2015-07-27T14:32:32Z</time>
      </trkpt>
      <trkpt lat="45.45457" lon="4.59501">
        <ele>532</ele>
        <time>2015-07-27T14:32:37Z</time>
      </trkpt>
      <trkpt lat="45.45433" lon="4.59515">
        <ele>536</ele>
        <time>2015-07-27T14:32:44Z</time>
      </trkpt>
      <trkpt lat="45.45423" lon="4.5952">
        <ele>536</ele>
        <time>2015-07-27T14:32:47Z</time>
      </trkpt>
      <trkpt lat="45.45405" lon="4.59527">
        <ele>547</ele>
        <time>2015-07-27T14:32:52Z</time>
      </trkpt>
      <trkpt lat="45.45388" lon="4.59539">
        <ele>548</ele>
        <time>2015-07-27T14:32:57Z</time>
      </trkpt>
      <trkpt lat="45.45374" lon="4.59562">
        <ele>548</ele>
        <time>2015-07-27T14:33:02Z</time>
      </trkpt>
      <trkpt lat="45.4537" lon="4.59586">
        <ele>543</ele>
        <time>2015-07-27T14:33:07Z</time>
      </trkpt>
      <trkpt lat="45.45369" lon="4.59615">
        <ele>542</ele>
        <time>2015-07-27T14:33:13Z</time>
      </trkpt>
      <trkpt lat="45.45372" lon="4.59639">
        <ele>540</ele>
        <time>2015-07-27T14:33:17Z</time>
      </trkpt>
      <trkpt lat="45.45364" lon="4.59678">
        <ele>536</ele>
        <time>2015-07-27T14:33:25Z</time>
      </trkpt>
      <trkpt lat="45.45359" lon="4.59688">
        <ele>536</ele>
        <time>2015-07-27T14:33:27Z</time>
      </trkpt>
      <trkpt lat="45.45347" lon="4.5971">
        <ele>536</ele>
        <time>2015-07-27T14:33:32Z</time>
      </trkpt>
      <trkpt lat="45.45332" lon="4.5973">
        <ele>547</ele>
        <time>2015-07-27T14:33:37Z</time>
      </trkpt>
      <trkpt lat="45.45317" lon="4.59746">
        <ele>547</ele>
        <time>2015-07-27T14:33:42Z</time>
      </trkpt>
      <trkpt lat="45.45299" lon="4.59758">
        <ele>545</ele>
        <time>2015-07-27T14:33:47Z</time>
      </trkpt>
      <trkpt lat="45.45273" lon="4.59789">
        <ele>547</ele>
        <time>2015-07-27T14:33:56Z</time>
      </trkpt>
      <trkpt lat="45.45272" lon="4.59794">
        <ele>547</ele>
        <time>2015-07-27T14:33:57Z</time>
      </trkpt>
      <trkpt lat="45.45265" lon="4.59818">
        <ele>547</ele>
        <time>2015-07-27T14:34:02Z</time>
      </trkpt>
      <trkpt lat="45.45259" lon="4.59844">
        <ele>545</ele>
        <time>2015-07-27T14:34:07Z</time>
      </trkpt>
      <trkpt lat="45.45245" lon="4.59885">
        <ele>555</ele>
        <time>2015-07-27T14:34:15Z</time>
      </trkpt>
      <trkpt lat="45.45241" lon="4.59894">
        <ele>555</ele>
        <time>2015-07-27T14:34:17Z</time>
      </trkpt>
      <trkpt lat="45.45229" lon="4.59915">
        <ele>554</ele>
        <time>2015-07-27T14:34:22Z</time>
      </trkpt>
      <trkpt lat="45.45218" lon="4.59932">
        <ele>550</ele>
        <time>2015-07-27T14:34:27Z</time>
      </trkpt>
      <trkpt lat="45.45204" lon="4.59949">
        <ele>550</ele>
        <time>2015-07-27T14:34:32Z</time>
      </trkpt>
      <trkpt lat="45.45183" lon="4.59971">
        <ele>551</ele>
        <time>2015-07-27T14:34:39Z</time>
      </trkpt>
      <trkpt lat="45.45174" lon="4.5998">
        <ele>551</ele>
        <time>2015-07-27T14:34:42Z</time>
      </trkpt>
      <trkpt lat="45.45158" lon="4.59991">
        <ele>558</ele>
        <time>2015-07-27T14:34:47Z</time>
      </trkpt>
      <trkpt lat="45.4514" lon="4.6">
        <ele>561</ele>
        <time>2015-07-27T14:34:52Z</time>
      </trkpt>
      <trkpt lat="45.45122" lon="4.60005">
        <ele>554</ele>
        <time>2015-07-27T14:34:57Z</time>
      </trkpt>
      <trkpt lat="45.45101" lon="4.60011">
        <ele>557</ele>
        <time>2015-07-27T14:35:03Z</time>
      </trkpt>
      <trkpt lat="45.4509" lon="4.60015">
        <ele>559</ele>
        <time>2015-07-27T14:35:06Z</time>
      </trkpt>
      <trkpt lat="45.45072" lon="4.60026">
        <ele>567</ele>
        <time>2015-07-27T14:35:11Z</time>
      </trkpt>
      <trkpt lat="45.45058" lon="4.60044">
        <ele>567</ele>
        <time>2015-07-27T14:35:16Z</time>
      </trkpt>
      <trkpt lat="45.45045" lon="4.60061">
        <ele>567</ele>
        <time>2015-07-27T14:35:21Z</time>
      </trkpt>
      <trkpt lat="45.45028" lon="4.60081">
        <ele>569</ele>
        <time>2015-07-27T14:35:27Z</time>
      </trkpt>
      <trkpt lat="45.45018" lon="4.60096">
        <ele>562</ele>
        <time>2015-07-27T14:35:31Z</time>
      </trkpt>
      <trkpt lat="45.45006" lon="4.60119">
        <ele>560</ele>
        <time>2015-07-27T14:35:36Z</time>
      </trkpt>
      <trkpt lat="45.44993" lon="4.60139">
        <ele>573</ele>
        <time>2015-07-27T14:35:41Z</time>
      </trkpt>
      <trkpt lat="45.44981" lon="4.6016">
        <ele>571</ele>
        <time>2015-07-27T14:35:46Z</time>
      </trkpt>
      <trkpt lat="45.44976" lon="4.60187">
        <ele>571</ele>
        <time>2015-07-27T14:35:51Z</time>
      </trkpt>
      <trkpt lat="45.44983" lon="4.60224">
        <ele>571</ele>
        <time>2015-07-27T14:35:58Z</time>
      </trkpt>
      <trkpt lat="45.44985" lon="4.60239">
        <ele>569</ele>
        <time>2015-07-27T14:36:01Z</time>
      </trkpt>
      <trkpt lat="45.44992" lon="4.60264">
        <ele>571</ele>
        <time>2015-07-27T14:36:06Z</time>
      </trkpt>
      <trkpt lat="45.45005" lon="4.60285">
        <ele>562</ele>
        <time>2015-07-27T14:36:11Z</time>
      </trkpt>
      <trkpt lat="45.45017" lon="4.60302">
        <ele>563</ele>
        <time>2015-07-27T14:36:16Z</time>
      </trkpt>
      <trkpt lat="45.45033" lon="4.6032">
        <ele>563</ele>
        <time>2015-07-27T14:36:21Z</time>
      </trkpt>
      <trkpt lat="45.45052" lon="4.60341">
        <ele>571</ele>
        <time>2015-07-27T14:36:27Z</time>
      </trkpt>
      <trkpt lat="45.45065" lon="4.60359">
        <ele>571</ele>
        <time>2015-07-27T14:36:31Z</time>
      </trkpt>
      <trkpt lat="45.45079" lon="4.6038">
        <ele>573</ele>
        <time>2015-07-27T14:36:36Z</time>
      </trkpt>
      <trkpt lat="45.45093" lon="4.60401">
        <ele>566</ele>
        <time>2015-07-27T14:36:41Z</time>
      </trkpt>
      <trkpt lat="45.45105" lon="4.60426">
        <ele>569</ele>
        <time>2015-07-27T14:36:46Z</time>
      </trkpt>
      <trkpt lat="45.45114" lon="4.60465">
        <ele>568</ele>
        <time>2015-07-27T14:36:53Z</time>
      </trkpt>
      <trkpt lat="45.45116" lon="4.60482">
        <ele>568</ele>
        <time>2015-07-27T14:36:56Z</time>
      </trkpt>
      <trkpt lat="45.45119" lon="4.60508">
        <ele>570</ele>
        <time>2015-07-27T14:37:01Z</time>
      </trkpt>
      <trkpt lat="45.45116" lon="4.60535">
        <ele>570</ele>
        <time>2015-07-27T14:37:06Z</time>
      </trkpt>
      <trkpt lat="45.45113" lon="4.6056">
        <ele>570</ele>
        <time>2015-07-27T14:37:11Z</time>
      </trkpt>
      <trkpt lat="45.45107" lon="4.60585">
        <ele>571</ele>
        <time>2015-07-27T14:37:16Z</time>
      </trkpt>
      <trkpt lat="45.45099" lon="4.6061">
        <ele>570</ele>
        <time>2015-07-27T14:37:21Z</time>
      </trkpt>
      <trkpt lat="45.45089" lon="4.60632">
        <ele>570</ele>
        <time>2015-07-27T14:37:26Z</time>
      </trkpt>
      <trkpt lat="45.45079" lon="4.60656">
        <ele>583</ele>
        <time>2015-07-27T14:37:31Z</time>
      </trkpt>
      <trkpt lat="45.45069" lon="4.60678">
        <ele>584</ele>
        <time>2015-07-27T14:37:36Z</time>
      </trkpt>
      <trkpt lat="45.45063" lon="4.60702">
        <ele>587</ele>
        <time>2015-07-27T14:37:41Z</time>
      </trkpt>
      <trkpt lat="45.4506" lon="4.6073">
        <ele>586</ele>
        <time>2015-07-27T14:37:46Z</time>
      </trkpt>
      <trkpt lat="45.45061" lon="4.60762">
        <ele>585</ele>
        <time>2015-07-27T14:37:52Z</time>
      </trkpt>
      <trkpt lat="45.45067" lon="4.60789">
        <ele>587</ele>
        <time>2015-07-27T14:37:57Z</time>
      </trkpt>
      <trkpt lat="45.45074" lon="4.60814">
        <ele>586</ele>
        <time>2015-07-27T14:38:02Z</time>
      </trkpt>
      <trkpt lat="45.45082" lon="4.60836">
        <ele>582</ele>
        <time>2015-07-27T14:38:07Z</time>
      </trkpt>
      <trkpt lat="45.45091" lon="4.60859">
        <ele>579</ele>
        <time>2015-07-27T14:38:12Z</time>
      </trkpt>
      <trkpt lat="45.45099" lon="4.6088">
        <ele>581</ele>
        <time>2015-07-27T14:38:17Z</time>
      </trkpt>
      <trkpt lat="45.45108" lon="4.60902">
        <ele>582</ele>
        <time>2015-07-27T14:38:22Z</time>
      </trkpt>
      <trkpt lat="45.45116" lon="4.60924">
        <ele>587</ele>
        <time>2015-07-27T14:38:27Z</time>
      </trkpt>
      <trkpt lat="45.45124" lon="4.60948">
        <ele>587</ele>
        <time>2015-07-27T14:38:32Z</time>
      </trkpt>
      <trkpt lat="45.45133" lon="4.60972">
        <ele>587</ele>
        <time>2015-07-27T14:38:37Z</time>
      </trkpt>
      <trkpt lat="45.45142" lon="4.60997">
        <ele>586</ele>
        <time>2015-07-27T14:38:42Z</time>
      </trkpt>
      <trkpt lat="45.4515" lon="4.61023">
        <ele>589</ele>
        <time>2015-07-27T14:38:47Z</time>
      </trkpt>
      <trkpt lat="45.45156" lon="4.61048">
        <ele>591</ele>
        <time>2015-07-27T14:38:52Z</time>
      </trkpt>
      <trkpt lat="45.4516" lon="4.61074">
        <ele>590</ele>
        <time>2015-07-27T14:38:57Z</time>
      </trkpt>
      <trkpt lat="45.45159" lon="4.61101">
        <ele>592</ele>
        <time>2015-07-27T14:39:02Z</time>
      </trkpt>
      <trkpt lat="45.45152" lon="4.61129">
        <ele>593</ele>
        <time>2015-07-27T14:39:07Z</time>
      </trkpt>
      <trkpt lat="45.45141" lon="4.61153">
        <ele>594</ele>
        <time>2015-07-27T14:39:12Z</time>
      </trkpt>
      <trkpt lat="45.45131" lon="4.61177">
        <ele>594</ele>
        <time>2015-07-27T14:39:17Z</time>
      </trkpt>
      <trkpt lat="45.45125" lon="4.61202">
        <ele>594</ele>
        <time>2015-07-27T14:39:22Z</time>
      </trkpt>
      <trkpt lat="45.45121" lon="4.61229">
        <ele>594</ele>
        <time>2015-07-27T14:39:27Z</time>
      </trkpt>
      <trkpt lat="45.4512" lon="4.61256">
        <ele>593</ele>
        <time>2015-07-27T14:39:32Z</time>
      </trkpt>
      <trkpt lat="45.45117" lon="4.61282">
        <ele>593</ele>
        <time>2015-07-27T14:39:37Z</time>
      </trkpt>
      <trkpt lat="45.45115" lon="4.61308">
        <ele>593</ele>
        <time>2015-07-27T14:39:42Z</time>
      </trkpt>
      <trkpt lat="45.45109" lon="4.61335">
        <ele>595</ele>
        <time>2015-07-27T14:39:47Z</time>
      </trkpt>
      <trkpt lat="45.45103" lon="4.61361">
        <ele>595</ele>
        <time>2015-07-27T14:39:52Z</time>
      </trkpt>
      <trkpt lat="45.45097" lon="4.61387">
        <ele>595</ele>
        <time>2015-07-27T14:39:57Z</time>
      </trkpt>
      <trkpt lat="45.45091" lon="4.61412">
        <ele>600</ele>
        <time>2015-07-27T14:40:02Z</time>
      </trkpt>
      <trkpt lat="45.45085" lon="4.61437">
        <ele>598</ele>
        <time>2015-07-27T14:40:07Z</time>
      </trkpt>
      <trkpt lat="45.45079" lon="4.61463">
        <ele>609</ele>
        <time>2015-07-27T14:40:12Z</time>
      </trkpt>
      <trkpt lat="45.45073" lon="4.61489">
        <ele>606</ele>
        <time>2015-07-27T14:40:17Z</time>
      </trkpt>
      <trkpt lat="45.45068" lon="4.61515">
        <ele>607</ele>
        <time>2015-07-27T14:40:22Z</time>
      </trkpt>
      <trkpt lat="45.45065" lon="4.6154">
        <ele>609</ele>
        <time>2015-07-27T14:40:27Z</time>
      </trkpt>
      <trkpt lat="45.45063" lon="4.61565">
        <ele>609</ele>
        <time>2015-07-27T14:40:32Z</time>
      </trkpt>
      <trkpt lat="45.45061" lon="4.61591">
        <ele>610</ele>
        <time>2015-07-27T14:40:37Z</time>
      </trkpt>
      <trkpt lat="45.45063" lon="4.61616">
        <ele>613</ele>
        <time>2015-07-27T14:40:42Z</time>
      </trkpt>
      <trkpt lat="45.4507" lon="4.61638">
        <ele>613</ele>
        <time>2015-07-27T14:40:47Z</time>
      </trkpt>
      <trkpt lat="45.45086" lon="4.61655">
        <ele>609</ele>
        <time>2015-07-27T14:40:53Z</time>
      </trkpt>
      <trkpt lat="45.451" lon="4.61658">
        <ele>609</ele>
        <time>2015-07-27T14:40:58Z</time>
      </trkpt>
      <trkpt lat="45.45115" lon="4.61652">
        <ele>610</ele>
        <time>2015-07-27T14:41:03Z</time>
      </trkpt>
      <trkpt lat="45.4513" lon="4.6164">
        <ele>611</ele>
        <time>2015-07-27T14:41:08Z</time>
      </trkpt>
      <trkpt lat="45.45145" lon="4.61628">
        <ele>610</ele>
        <time>2015-07-27T14:41:13Z</time>
      </trkpt>
      <trkpt lat="45.45159" lon="4.61615">
        <ele>609</ele>
        <time>2015-07-27T14:41:18Z</time>
      </trkpt>
      <trkpt lat="45.45174" lon="4.61604">
        <ele>613</ele>
        <time>2015-07-27T14:41:23Z</time>
      </trkpt>
      <trkpt lat="45.45189" lon="4.61594">
        <ele>613</ele>
        <time>2015-07-27T14:41:28Z</time>
      </trkpt>
      <trkpt lat="45.45204" lon="4.61584">
        <ele>615</ele>
        <time>2015-07-27T14:41:33Z</time>
      </trkpt>
      <trkpt lat="45.45219" lon="4.61577">
        <ele>607</ele>
        <time>2015-07-27T14:41:38Z</time>
      </trkpt>
      <trkpt lat="45.45236" lon="4.61572">
        <ele>609</ele>
        <time>2015-07-27T14:41:43Z</time>
      </trkpt>
      <trkpt lat="45.45253" lon="4.61574">
        <ele>613</ele>
        <time>2015-07-27T14:41:48Z</time>
      </trkpt>
      <trkpt lat="45.45269" lon="4.61579">
        <ele>611</ele>
        <time>2015-07-27T14:41:53Z</time>
      </trkpt>
      <trkpt lat="45.45284" lon="4.61589">
        <ele>617</ele>
        <time>2015-07-27T14:41:58Z</time>
      </trkpt>
      <trkpt lat="45.453" lon="4.61602">
        <ele>617</ele>
        <time>2015-07-27T14:42:03Z</time>
      </trkpt>
      <trkpt lat="45.45314" lon="4.61619">
        <ele>617</ele>
        <time>2015-07-27T14:42:08Z</time>
      </trkpt>
      <trkpt lat="45.45325" lon="4.61641">
        <ele>618</ele>
        <time>2015-07-27T14:42:13Z</time>
      </trkpt>
      <trkpt lat="45.45333" lon="4.61665">
        <ele>619</ele>
        <time>2015-07-27T14:42:18Z</time>
      </trkpt>
      <trkpt lat="45.4534" lon="4.6169">
        <ele>620</ele>
        <time>2015-07-27T14:42:23Z</time>
      </trkpt>
      <trkpt lat="45.4535" lon="4.61711">
        <ele>621</ele>
        <time>2015-07-27T14:42:28Z</time>
      </trkpt>
      <trkpt lat="45.45365" lon="4.61729">
        <ele>622</ele>
        <time>2015-07-27T14:42:33Z</time>
      </trkpt>
      <trkpt lat="45.45387" lon="4.61746">
        <ele>621</ele>
        <time>2015-07-27T14:42:39Z</time>
      </trkpt>
      <trkpt lat="45.45401" lon="4.61755">
        <ele>627</ele>
        <time>2015-07-27T14:42:43Z</time>
      </trkpt>
      <trkpt lat="45.45417" lon="4.61766">
        <ele>622</ele>
        <time>2015-07-27T14:42:48Z</time>
      </trkpt>
      <trkpt lat="45.45433" lon="4.61779">
        <ele>623</ele>
        <time>2015-07-27T14:42:53Z</time>
      </trkpt>
      <trkpt lat="45.45448" lon="4.61799">
        <ele>624</ele>
        <time>2015-07-27T14:42:58Z</time>
      </trkpt>
      <trkpt lat="45.45457" lon="4.61824">
        <ele>625</ele>
        <time>2015-07-27T14:43:04Z</time>
      </trkpt>
      <trkpt lat="45.45463" lon="4.6184">
        <ele>633</ele>
        <time>2015-07-27T14:43:08Z</time>
      </trkpt>
      <trkpt lat="45.45469" lon="4.61864">
        <ele>634</ele>
        <time>2015-07-27T14:43:13Z</time>
      </trkpt>
      <trkpt lat="45.45477" lon="4.61885">
        <ele>635</ele>
        <time>2015-07-27T14:43:18Z</time>
      </trkpt>
      <trkpt lat="45.45491" lon="4.61902">
        <ele>635</ele>
        <time>2015-07-27T14:43:23Z</time>
      </trkpt>
      <trkpt lat="45.45506" lon="4.61916">
        <ele>633</ele>
        <time>2015-07-27T14:43:28Z</time>
      </trkpt>
      <trkpt lat="45.45522" lon="4.6193">
        <ele>637</ele>
        <time>2015-07-27T14:43:33Z</time>
      </trkpt>
      <trkpt lat="45.45539" lon="4.61943">
        <ele>638</ele>
        <time>2015-07-27T14:43:38Z</time>
      </trkpt>
      <trkpt lat="45.45557" lon="4.61952">
        <ele>637</ele>
        <time>2015-07-27T14:43:43Z</time>
      </trkpt>
      <trkpt lat="45.45577" lon="4.61951">
        <ele>637</ele>
        <time>2015-07-27T14:43:48Z</time>
      </trkpt>
      <trkpt lat="45.45594" lon="4.61943">
        <ele>639</ele>
        <time>2015-07-27T14:43:53Z</time>
      </trkpt>
      <trkpt lat="45.45609" lon="4.61928">
        <ele>639</ele>
        <time>2015-07-27T14:43:58Z</time>
      </trkpt>
      <trkpt lat="45.45622" lon="4.6191">
        <ele>634</ele>
        <time>2015-07-27T14:44:03Z</time>
      </trkpt>
      <trkpt lat="45.45634" lon="4.6189">
        <ele>634</ele>
        <time>2015-07-27T14:44:08Z</time>
      </trkpt>
      <trkpt lat="45.45647" lon="4.61873">
        <ele>634</ele>
        <time>2015-07-27T14:44:13Z</time>
      </trkpt>
      <trkpt lat="45.4566" lon="4.61858">
        <ele>634</ele>
        <time>2015-07-27T14:44:18Z</time>
      </trkpt>
      <trkpt lat="45.45681" lon="4.61841">
        <ele>638</ele>
        <time>2015-07-27T14:44:25Z</time>
      </trkpt>
      <trkpt lat="45.45691" lon="4.61836">
        <ele>640</ele>
        <time>2015-07-27T14:44:28Z</time>
      </trkpt>
      <trkpt lat="45.4571" lon="4.61833">
        <ele>633</ele>
        <time>2015-07-27T14:44:33Z</time>
      </trkpt>
      <trkpt lat="45.45725" lon="4.61835">
        <ele>642</ele>
        <time>2015-07-27T14:44:37Z</time>
      </trkpt>
      <trkpt lat="45.45743" lon="4.61839">
        <ele>641</ele>
        <time>2015-07-27T14:44:42Z</time>
      </trkpt>
      <trkpt lat="45.45762" lon="4.61844">
        <ele>643</ele>
        <time>2015-07-27T14:44:47Z</time>
      </trkpt>
      <trkpt lat="45.4578" lon="4.6185">
        <ele>644</ele>
        <time>2015-07-27T14:44:52Z</time>
      </trkpt>
      <trkpt lat="45.45799" lon="4.61854">
        <ele>644</ele>
        <time>2015-07-27T14:44:57Z</time>
      </trkpt>
      <trkpt lat="45.45816" lon="4.61861">
        <ele>644</ele>
        <time>2015-07-27T14:45:02Z</time>
      </trkpt>
      <trkpt lat="45.45836" lon="4.61866">
        <ele>642</ele>
        <time>2015-07-27T14:45:07Z</time>
      </trkpt>
      <trkpt lat="45.45855" lon="4.61872">
        <ele>643</ele>
        <time>2015-07-27T14:45:12Z</time>
      </trkpt>
      <trkpt lat="45.45874" lon="4.6188">
        <ele>644</ele>
        <time>2015-07-27T14:45:17Z</time>
      </trkpt>
      <trkpt lat="45.45893" lon="4.61887">
        <ele>644</ele>
        <time>2015-07-27T14:45:22Z</time>
      </trkpt>
      <trkpt lat="45.45912" lon="4.61894">
        <ele>645</ele>
        <time>2015-07-27T14:45:27Z</time>
      </trkpt>
      <trkpt lat="45.45933" lon="4.61902">
        <ele>646</ele>
        <time>2015-07-27T14:45:32Z</time>
      </trkpt>
      <trkpt lat="45.45952" lon="4.61909">
        <ele>645</ele>
        <time>2015-07-27T14:45:37Z</time>
      </trkpt>
      <trkpt lat="45.45972" lon="4.61916">
        <ele>646</ele>
        <time>2015-07-27T14:45:42Z</time>
      </trkpt>
      <trkpt lat="45.45991" lon="4.61926">
        <ele>651</ele>
        <time>2015-07-27T14:45:47Z</time>
      </trkpt>
      <trkpt lat="45.46008" lon="4.61941">
        <ele>652</ele>
        <time>2015-07-27T14:45:52Z</time>
      </trkpt>
      <trkpt lat="45.46023" lon="4.61962">
        <ele>653</ele>
        <time>2015-07-27T14:45:57Z</time>
      </trkpt>
      <trkpt lat="45.46032" lon="4.61985">
        <ele>654</ele>
        <time>2015-07-27T14:46:02Z</time>
      </trkpt>
      <trkpt lat="45.46039" lon="4.62014">
        <ele>651</ele>
        <time>2015-07-27T14:46:07Z</time>
      </trkpt>
      <trkpt lat="45.46039" lon="4.62045">
        <ele>651</ele>
        <time>2015-07-27T14:46:12Z</time>
      </trkpt>
      <trkpt lat="45.46036" lon="4.62076">
        <ele>651</ele>
        <time>2015-07-27T14:46:17Z</time>
      </trkpt>
      <trkpt lat="45.46026" lon="4.62103">
        <ele>649</ele>
        <time>2015-07-27T14:46:22Z</time>
      </trkpt>
      <trkpt lat="45.46017" lon="4.6213">
        <ele>649</ele>
        <time>2015-07-27T14:46:27Z</time>
      </trkpt>
      <trkpt lat="45.46008" lon="4.62157">
        <ele>653</ele>
        <time>2015-07-27T14:46:32Z</time>
      </trkpt>
      <trkpt lat="45.46" lon="4.62187">
        <ele>649</ele>
        <time>2015-07-27T14:46:37Z</time>
      </trkpt>
      <trkpt lat="45.45994" lon="4.62221">
        <ele>666</ele>
        <time>2015-07-27T14:46:42Z</time>
      </trkpt>
      <trkpt lat="45.45991" lon="4.62255">
        <ele>664</ele>
        <time>2015-07-27T14:46:47Z</time>
      </trkpt>
      <trkpt lat="45.45987" lon="4.6229">
        <ele>672</ele>
        <time>2015-07-27T14:46:52Z</time>
      </trkpt>
      <trkpt lat="45.45991" lon="4.62322">
        <ele>669</ele>
        <time>2015-07-27T14:46:57Z</time>
      </trkpt>
      <trkpt lat="45.45997" lon="4.62365">
        <ele>675</ele>
        <time>2015-07-27T14:47:04Z</time>
      </trkpt>
      <trkpt lat="45.46" lon="4.62391">
        <ele>655</ele>
        <time>2015-07-27T14:47:08Z</time>
      </trkpt>
      <trkpt lat="45.46008" lon="4.62442">
        <ele>659</ele>
        <time>2015-07-27T14:47:15Z</time>
      </trkpt>
      <trkpt lat="45.46009" lon="4.62449">
        <ele>658</ele>
        <time>2015-07-27T14:47:16Z</time>
      </trkpt>
      <trkpt lat="45.46016" lon="4.62484">
        <ele>660</ele>
        <time>2015-07-27T14:47:21Z</time>
      </trkpt>
      <trkpt lat="45.46024" lon="4.62518">
        <ele>660</ele>
        <time>2015-07-27T14:47:26Z</time>
      </trkpt>
      <trkpt lat="45.46026" lon="4.62551">
        <ele>659</ele>
        <time>2015-07-27T14:47:31Z</time>
      </trkpt>
      <trkpt lat="45.46018" lon="4.62583">
        <ele>663</ele>
        <time>2015-07-27T14:47:36Z</time>
      </trkpt>
      <trkpt lat="45.46" lon="4.62606">
        <ele>660</ele>
        <time>2015-07-27T14:47:41Z</time>
      </trkpt>
      <trkpt lat="45.45976" lon="4.62628">
        <ele>676</ele>
        <time>2015-07-27T14:47:47Z</time>
      </trkpt>
      <trkpt lat="45.45956" lon="4.62646">
        <ele>678</ele>
        <time>2015-07-27T14:47:52Z</time>
      </trkpt>
      <trkpt lat="45.45937" lon="4.62671">
        <ele>674</ele>
        <time>2015-07-27T14:47:57Z</time>
      </trkpt>
      <trkpt lat="45.45924" lon="4.627">
        <ele>671</ele>
        <time>2015-07-27T14:48:02Z</time>
      </trkpt>
      <trkpt lat="45.45914" lon="4.62732">
        <ele>682</ele>
        <time>2015-07-27T14:48:07Z</time>
      </trkpt>
      <trkpt lat="45.45897" lon="4.6279">
        <ele>678</ele>
        <time>2015-07-27T14:48:16Z</time>
      </trkpt>
      <trkpt lat="45.45894" lon="4.62795">
        <ele>678</ele>
        <time>2015-07-27T14:48:17Z</time>
      </trkpt>
      <trkpt lat="45.45879" lon="4.62819">
        <ele>679</ele>
        <time>2015-07-27T14:48:22Z</time>
      </trkpt>
      <trkpt lat="45.45862" lon="4.62842">
        <ele>679</ele>
        <time>2015-07-27T14:48:27Z</time>
      </trkpt>
      <trkpt lat="45.45849" lon="4.62863">
        <ele>680</ele>
        <time>2015-07-27T14:48:32Z</time>
      </trkpt>
      <trkpt lat="45.45841" lon="4.62894">
        <ele>680</ele>
        <time>2015-07-27T14:48:37Z</time>
      </trkpt>
      <trkpt lat="45.45847" lon="4.62929">
        <ele>682</ele>
        <time>2015-07-27T14:48:42Z</time>
      </trkpt>
      <trkpt lat="45.45862" lon="4.62954">
        <ele>678</ele>
        <time>2015-07-27T14:48:47Z</time>
      </trkpt>
      <trkpt lat="45.45876" lon="4.62972">
        <ele>677</ele>
        <time>2015-07-27T14:48:51Z</time>
      </trkpt>
      <trkpt lat="45.45892" lon="4.62998">
        <ele>674</ele>
        <time>2015-07-27T14:48:56Z</time>
      </trkpt>
      <trkpt lat="45.45908" lon="4.63018">
        <ele>680</ele>
        <time>2015-07-27T14:49:01Z</time>
      </trkpt>
      <trkpt lat="45.45925" lon="4.63041">
        <ele>673</ele>
        <time>2015-07-27T14:49:06Z</time>
      </trkpt>
      <trkpt lat="45.45955" lon="4.63061">
        <ele>673</ele>
        <time>2015-07-27T14:49:14Z</time>
      </trkpt>
      <trkpt lat="45.45969" lon="4.63065">
        <ele>671</ele>
        <time>2015-07-27T14:49:17Z</time>
      </trkpt>
      <trkpt lat="45.45985" lon="4.63071">
        <ele>671</ele>
        <time>2015-07-27T14:49:20Z</time>
      </trkpt>
      <trkpt lat="45.4601" lon="4.63085">
        <ele>671</ele>
        <time>2015-07-27T14:49:26Z</time>
      </trkpt>
      <trkpt lat="45.46025" lon="4.63098">
        <ele>672</ele>
        <time>2015-07-27T14:49:30Z</time>
      </trkpt>
      <trkpt lat="45.46039" lon="4.63113">
        <ele>672</ele>
        <time>2015-07-27T14:49:34Z</time>
      </trkpt>
      <trkpt lat="45.46058" lon="4.63137">
        <ele>672</ele>
        <time>2015-07-27T14:49:39Z</time>
      </trkpt>
      <trkpt lat="45.46073" lon="4.6316">
        <ele>672</ele>
        <time>2015-07-27T14:49:44Z</time>
      </trkpt>
      <trkpt lat="45.46085" lon="4.63191">
        <ele>668</ele>
        <time>2015-07-27T14:49:49Z</time>
      </trkpt>
      <trkpt lat="45.46096" lon="4.63221">
        <ele>669</ele>
        <time>2015-07-27T14:49:54Z</time>
      </trkpt>
      <trkpt lat="45.46104" lon="4.63261">
        <ele>676</ele>
        <time>2015-07-27T14:50:00Z</time>
      </trkpt>
      <trkpt lat="45.46109" lon="4.63288">
        <ele>675</ele>
        <time>2015-07-27T14:50:04Z</time>
      </trkpt>
      <trkpt lat="45.46117" lon="4.63327">
        <ele>676</ele>
        <time>2015-07-27T14:50:10Z</time>
      </trkpt>
      <trkpt lat="45.46128" lon="4.63357">
        <ele>681</ele>
        <time>2015-07-27T14:50:15Z</time>
      </trkpt>
      <trkpt lat="45.4614" lon="4.63382">
        <ele>681</ele>
        <time>2015-07-27T14:50:19Z</time>
      </trkpt>
      <trkpt lat="45.46148" lon="4.63412">
        <ele>679</ele>
        <time>2015-07-27T14:50:24Z</time>
      </trkpt>
      <trkpt lat="45.46159" lon="4.63445">
        <ele>688</ele>
        <time>2015-07-27T14:50:29Z</time>
      </trkpt>
      <trkpt lat="45.46173" lon="4.63494">
        <ele>679</ele>
        <time>2015-07-27T14:50:37Z</time>
      </trkpt>
      <trkpt lat="45.46185" lon="4.63517">
        <ele>680</ele>
        <time>2015-07-27T14:50:41Z</time>
      </trkpt>
      <trkpt lat="45.46193" lon="4.63541">
        <ele>679</ele>
        <time>2015-07-27T14:50:45Z</time>
      </trkpt>
      <trkpt lat="45.46203" lon="4.63565">
        <ele>680</ele>
        <time>2015-07-27T14:50:49Z</time>
      </trkpt>
      <trkpt lat="45.46215" lon="4.63592">
        <ele>687</ele>
        <time>2015-07-27T14:50:54Z</time>
      </trkpt>
      <trkpt lat="45.4624" lon="4.63629">
        <ele>687</ele>
        <time>2015-07-27T14:51:02Z</time>
      </trkpt>
      <trkpt lat="45.46245" lon="4.63639">
        <ele>687</ele>
        <time>2015-07-27T14:51:04Z</time>
      </trkpt>
      <trkpt lat="45.46264" lon="4.63665">
        <ele>677</ele>
        <time>2015-07-27T14:51:10Z</time>
      </trkpt>
      <trkpt lat="45.46277" lon="4.63679">
        <ele>680</ele>
        <time>2015-07-27T14:51:14Z</time>
      </trkpt>
      <trkpt lat="45.463" lon="4.63711">
        <ele>679</ele>
        <time>2015-07-27T14:51:21Z</time>
      </trkpt>
      <trkpt lat="45.46308" lon="4.63727">
        <ele>679</ele>
        <time>2015-07-27T14:51:24Z</time>
      </trkpt>
      <trkpt lat="45.46321" lon="4.63758">
        <ele>681</ele>
        <time>2015-07-27T14:51:29Z</time>
      </trkpt>
      <trkpt lat="45.46321" lon="4.63803">
        <ele>683</ele>
        <time>2015-07-27T14:51:36Z</time>
      </trkpt>
      <trkpt lat="45.46317" lon="4.63822">
        <ele>684</ele>
        <time>2015-07-27T14:51:39Z</time>
      </trkpt>
      <trkpt lat="45.46295" lon="4.63844">
        <ele>678</ele>
        <time>2015-07-27T14:51:44Z</time>
      </trkpt>
      <trkpt lat="45.46269" lon="4.6385">
        <ele>678</ele>
        <time>2015-07-27T14:51:49Z</time>
      </trkpt>
      <trkpt lat="45.46241" lon="4.63844">
        <ele>679</ele>
        <time>2015-07-27T14:51:54Z</time>
      </trkpt>
      <trkpt lat="45.46213" lon="4.63838">
        <ele>677</ele>
        <time>2015-07-27T14:51:59Z</time>
      </trkpt>
      <trkpt lat="45.46181" lon="4.63832">
        <ele>689</ele>
        <time>2015-07-27T14:52:04Z</time>
      </trkpt>
      <trkpt lat="45.46148" lon="4.63828">
        <ele>693</ele>
        <time>2015-07-27T14:52:09Z</time>
      </trkpt>
      <trkpt lat="45.46117" lon="4.63831">
        <ele>695</ele>
        <time>2015-07-27T14:52:14Z</time>
      </trkpt>
      <trkpt lat="45.46089" lon="4.63837">
        <ele>686</ele>
        <time>2015-07-27T14:52:19Z</time>
      </trkpt>
      <trkpt lat="45.46059" lon="4.63845">
        <ele>685</ele>
        <time>2015-07-27T14:52:24Z</time>
      </trkpt>
      <trkpt lat="45.46027" lon="4.63858">
        <ele>685</ele>
        <time>2015-07-27T14:52:29Z</time>
      </trkpt>
      <trkpt lat="45.45994" lon="4.63872">
        <ele>694</ele>
        <time>2015-07-27T14:52:34Z</time>
      </trkpt>
      <trkpt lat="45.45964" lon="4.63888">
        <ele>694</ele>
        <time>2015-07-27T14:52:39Z</time>
      </trkpt>
      <trkpt lat="45.45936" lon="4.63907">
        <ele>695</ele>
        <time>2015-07-27T14:52:44Z</time>
      </trkpt>
      <trkpt lat="45.45908" lon="4.63929">
        <ele>699</ele>
        <time>2015-07-27T14:52:49Z</time>
      </trkpt>
      <trkpt lat="45.45894" lon="4.63969">
        <ele>701</ele>
        <time>2015-07-27T14:52:54Z</time>
      </trkpt>
      <trkpt lat="45.45911" lon="4.64015">
        <ele>697</ele>
        <time>2015-07-27T14:52:59Z</time>
      </trkpt>
      <trkpt lat="45.45939" lon="4.64051">
        <ele>683</ele>
        <time>2015-07-27T14:53:04Z</time>
      </trkpt>
      <trkpt lat="45.45963" lon="4.64085">
        <ele>688</ele>
        <time>2015-07-27T14:53:09Z</time>
      </trkpt>
      <trkpt lat="45.45984" lon="4.64118">
        <ele>687</ele>
        <time>2015-07-27T14:53:14Z</time>
      </trkpt>
      <trkpt lat="45.46002" lon="4.64151">
        <ele>674</ele>
        <time>2015-07-27T14:53:19Z</time>
      </trkpt>
      <trkpt lat="45.46016" lon="4.6419">
        <ele>676</ele>
        <time>2015-07-27T14:53:24Z</time>
      </trkpt>
      <trkpt lat="45.46033" lon="4.64234">
        <ele>676</ele>
        <time>2015-07-27T14:53:29Z</time>
      </trkpt>
      <trkpt lat="45.46053" lon="4.64305">
        <ele>679</ele>
        <time>2015-07-27T14:53:36Z</time>
      </trkpt>
      <trkpt lat="45.46061" lon="4.64348">
        <ele>682</ele>
        <time>2015-07-27T14:53:40Z</time>
      </trkpt>
      <trkpt lat="45.46075" lon="4.6439">
        <ele>683</ele>
        <time>2015-07-27T14:53:44Z</time>
      </trkpt>
      <trkpt lat="45.46091" lon="4.64441">
        <ele>670</ele>
        <time>2015-07-27T14:53:49Z</time>
      </trkpt>
      <trkpt lat="45.46104" lon="4.64491">
        <ele>673</ele>
        <time>2015-07-27T14:53:54Z</time>
      </trkpt>
      <trkpt lat="45.4612" lon="4.64539">
        <ele>675</ele>
        <time>2015-07-27T14:53:59Z</time>
      </trkpt>
      <trkpt lat="45.46138" lon="4.64583">
        <ele>673</ele>
        <time>2015-07-27T14:54:04Z</time>
      </trkpt>
      <trkpt lat="45.46169" lon="4.64634">
        <ele>664</ele>
        <time>2015-07-27T14:54:10Z</time>
      </trkpt>
      <trkpt lat="45.46209" lon="4.6471">
        <ele>668</ele>
        <time>2015-07-27T14:54:18Z</time>
      </trkpt>
      <trkpt lat="45.46213" lon="4.6472">
        <ele>668</ele>
        <time>2015-07-27T14:54:19Z</time>
      </trkpt>
      <trkpt lat="45.46252" lon="4.64785">
        <ele>659</ele>
        <time>2015-07-27T14:54:26Z</time>
      </trkpt>
      <trkpt lat="45.46269" lon="4.64812">
        <ele>661</ele>
        <time>2015-07-27T14:54:29Z</time>
      </trkpt>
      <trkpt lat="45.46288" lon="4.6486">
        <ele>663</ele>
        <time>2015-07-27T14:54:34Z</time>
      </trkpt>
      <trkpt lat="45.46283" lon="4.64928">
        <ele>662</ele>
        <time>2015-07-27T14:54:40Z</time>
      </trkpt>
      <trkpt lat="45.46268" lon="4.64972">
        <ele>660</ele>
        <time>2015-07-27T14:54:44Z</time>
      </trkpt>
      <trkpt lat="45.46244" lon="4.65021">
        <ele>664</ele>
        <time>2015-07-27T14:54:49Z</time>
      </trkpt>
      <trkpt lat="45.46235" lon="4.6508">
        <ele>661</ele>
        <time>2015-07-27T14:54:54Z</time>
      </trkpt>
      <trkpt lat="45.46225" lon="4.65142">
        <ele>658</ele>
        <time>2015-07-27T14:54:59Z</time>
      </trkpt>
      <trkpt lat="45.46209" lon="4.652">
        <ele>652</ele>
        <time>2015-07-27T14:55:04Z</time>
      </trkpt>
      <trkpt lat="45.46183" lon="4.65249">
        <ele>652</ele>
        <time>2015-07-27T14:55:09Z</time>
      </trkpt>
      <trkpt lat="45.46145" lon="4.65279">
        <ele>658</ele>
        <time>2015-07-27T14:55:14Z</time>
      </trkpt>
      <trkpt lat="45.46108" lon="4.65316">
        <ele>661</ele>
        <time>2015-07-27T14:55:19Z</time>
      </trkpt>
      <trkpt lat="45.46072" lon="4.65408">
        <ele>663</ele>
        <time>2015-07-27T14:55:27Z</time>
      </trkpt>
      <trkpt lat="45.4605" lon="4.65463">
        <ele>659</ele>
        <time>2015-07-27T14:55:32Z</time>
      </trkpt>
      <trkpt lat="45.4604" lon="4.65482">
        <ele>660</ele>
        <time>2015-07-27T14:55:34Z</time>
      </trkpt>
      <trkpt lat="45.46007" lon="4.65519">
        <ele>654</ele>
        <time>2015-07-27T14:55:39Z</time>
      </trkpt>
      <trkpt lat="45.4597" lon="4.65544">
        <ele>658</ele>
        <time>2015-07-27T14:55:44Z</time>
      </trkpt>
      <trkpt lat="45.45938" lon="4.65554">
        <ele>657</ele>
        <time>2015-07-27T14:55:48Z</time>
      </trkpt>
      <trkpt lat="45.4588" lon="4.65563">
        <ele>659</ele>
        <time>2015-07-27T14:55:55Z</time>
      </trkpt>
      <trkpt lat="45.45855" lon="4.65563">
        <ele>659</ele>
        <time>2015-07-27T14:55:58Z</time>
      </trkpt>
      <trkpt lat="45.45799" lon="4.65625">
        <ele>661</ele>
        <time>2015-07-27T14:56:07Z</time>
      </trkpt>
      <trkpt lat="45.45792" lon="4.65645">
        <ele>661</ele>
        <time>2015-07-27T14:56:09Z</time>
      </trkpt>
      <trkpt lat="45.45773" lon="4.65705">
        <ele>657</ele>
        <time>2015-07-27T14:56:15Z</time>
      </trkpt>
      <trkpt lat="45.45769" lon="4.65736">
        <ele>657</ele>
        <time>2015-07-27T14:56:18Z</time>
      </trkpt>
      <trkpt lat="45.45779" lon="4.65786">
        <ele>655</ele>
        <time>2015-07-27T14:56:23Z</time>
      </trkpt>
      <trkpt lat="45.45799" lon="4.65819">
        <ele>652</ele>
        <time>2015-07-27T14:56:28Z</time>
      </trkpt>
      <trkpt lat="45.45828" lon="4.65844">
        <ele>650</ele>
        <time>2015-07-27T14:56:33Z</time>
      </trkpt>
      <trkpt lat="45.4587" lon="4.65891">
        <ele>643</ele>
        <time>2015-07-27T14:56:42Z</time>
      </trkpt>
      <trkpt lat="45.45875" lon="4.65897">
        <ele>643</ele>
        <time>2015-07-27T14:56:43Z</time>
      </trkpt>
      <trkpt lat="45.45897" lon="4.65923">
        <ele>651</ele>
        <time>2015-07-27T14:56:48Z</time>
      </trkpt>
      <trkpt lat="45.45919" lon="4.65953">
        <ele>644</ele>
        <time>2015-07-27T14:56:53Z</time>
      </trkpt>
      <trkpt lat="45.45938" lon="4.65984">
        <ele>647</ele>
        <time>2015-07-27T14:56:58Z</time>
      </trkpt>
      <trkpt lat="45.45961" lon="4.6602">
        <ele>655</ele>
        <time>2015-07-27T14:57:04Z</time>
      </trkpt>
      <trkpt lat="45.45974" lon="4.66044">
        <ele>656</ele>
        <time>2015-07-27T14:57:08Z</time>
      </trkpt>
      <trkpt lat="45.45989" lon="4.66073">
        <ele>656</ele>
        <time>2015-07-27T14:57:13Z</time>
      </trkpt>
      <trkpt lat="45.4601" lon="4.66111">
        <ele>653</ele>
        <time>2015-07-27T14:57:20Z</time>
      </trkpt>
      <trkpt lat="45.46017" lon="4.66125">
        <ele>654</ele>
        <time>2015-07-27T14:57:23Z</time>
      </trkpt>
      <trkpt lat="45.4603" lon="4.66144">
        <ele>655</ele>
        <time>2015-07-27T14:57:28Z</time>
      </trkpt>
      <trkpt lat="45.46046" lon="4.66165">
        <ele>653</ele>
        <time>2015-07-27T14:57:33Z</time>
      </trkpt>
      <trkpt lat="45.4606" lon="4.66185">
        <ele>662</ele>
        <time>2015-07-27T14:57:38Z</time>
      </trkpt>
      <trkpt lat="45.46077" lon="4.66208">
        <ele>664</ele>
        <time>2015-07-27T14:57:43Z</time>
      </trkpt>
      <trkpt lat="45.46089" lon="4.66227">
        <ele>653</ele>
        <time>2015-07-27T14:57:47Z</time>
      </trkpt>
      <trkpt lat="45.46106" lon="4.66253">
        <ele>662</ele>
        <time>2015-07-27T14:57:52Z</time>
      </trkpt>
      <trkpt lat="45.46124" lon="4.66277">
        <ele>660</ele>
        <time>2015-07-27T14:57:57Z</time>
      </trkpt>
      <trkpt lat="45.46151" lon="4.66313">
        <ele>659</ele>
        <time>2015-07-27T14:58:05Z</time>
      </trkpt>
      <trkpt lat="45.46157" lon="4.66322">
        <ele>658</ele>
        <time>2015-07-27T14:58:07Z</time>
      </trkpt>
      <trkpt lat="45.46193" lon="4.66351">
        <ele>660</ele>
        <time>2015-07-27T14:58:16Z</time>
      </trkpt>
      <trkpt lat="45.46197" lon="4.66353">
        <ele>660</ele>
        <time>2015-07-27T14:58:17Z</time>
      </trkpt>
      <trkpt lat="45.46228" lon="4.66365">
        <ele>659</ele>
        <time>2015-07-27T14:58:24Z</time>
      </trkpt>
      <trkpt lat="45.4625" lon="4.6637">
        <ele>656</ele>
        <time>2015-07-27T14:58:29Z</time>
      </trkpt>
      <trkpt lat="45.46258" lon="4.66368">
        <ele>656</ele>
        <time>2015-07-27T14:58:31Z</time>
      </trkpt>
      <trkpt lat="45.46283" lon="4.66378">
        <ele>657</ele>
        <time>2015-07-27T14:58:36Z</time>
      </trkpt>
      <trkpt lat="45.46314" lon="4.66387">
        <ele>658</ele>
        <time>2015-07-27T14:58:42Z</time>
      </trkpt>
      <trkpt lat="45.46348" lon="4.66402">
        <ele>655</ele>
        <time>2015-07-27T14:58:49Z</time>
      </trkpt>
      <trkpt lat="45.46356" lon="4.66411">
        <ele>654</ele>
        <time>2015-07-27T14:58:51Z</time>
      </trkpt>
      <trkpt lat="45.46372" lon="4.66443">
        <ele>657</ele>
        <time>2015-07-27T14:58:56Z</time>
      </trkpt>
      <trkpt lat="45.46381" lon="4.66476">
        <ele>657</ele>
        <time>2015-07-27T14:59:01Z</time>
      </trkpt>
      <trkpt lat="45.46385" lon="4.66514">
        <ele>659</ele>
        <time>2015-07-27T14:59:06Z</time>
      </trkpt>
      <trkpt lat="45.46386" lon="4.66587">
        <ele>658</ele>
        <time>2015-07-27T14:59:15Z</time>
      </trkpt>
      <trkpt lat="45.46378" lon="4.6663">
        <ele>660</ele>
        <time>2015-07-27T14:59:20Z</time>
      </trkpt>
      <trkpt lat="45.46375" lon="4.66639">
        <ele>660</ele>
        <time>2015-07-27T14:59:21Z</time>
      </trkpt>
      <trkpt lat="45.46357" lon="4.66676">
        <ele>661</ele>
        <time>2015-07-27T14:59:26Z</time>
      </trkpt>
      <trkpt lat="45.46337" lon="4.6671">
        <ele>658</ele>
        <time>2015-07-27T14:59:31Z</time>
      </trkpt>
      <trkpt lat="45.46319" lon="4.66748">
        <ele>669</ele>
        <time>2015-07-27T14:59:36Z</time>
      </trkpt>
      <trkpt lat="45.46313" lon="4.66792">
        <ele>668</ele>
        <time>2015-07-27T14:59:41Z</time>
      </trkpt>
      <trkpt lat="45.46313" lon="4.66839">
        <ele>663</ele>
        <time>2015-07-27T14:59:46Z</time>
      </trkpt>
      <trkpt lat="45.46311" lon="4.66886">
        <ele>665</ele>
        <time>2015-07-27T14:59:51Z</time>
      </trkpt>
      <trkpt lat="45.46303" lon="4.66933">
        <ele>665</ele>
        <time>2015-07-27T14:59:56Z</time>
      </trkpt>
      <trkpt lat="45.46299" lon="4.66982">
        <ele>666</ele>
        <time>2015-07-27T15:00:01Z</time>
      </trkpt>
      <trkpt lat="45.463" lon="4.6703">
        <ele>664</ele>
        <time>2015-07-27T15:00:06Z</time>
      </trkpt>
      <trkpt lat="45.46304" lon="4.67096">
        <ele>661</ele>
        <time>2015-07-27T15:00:13Z</time>
      </trkpt>
      <trkpt lat="45.46304" lon="4.67124">
        <ele>662</ele>
        <time>2015-07-27T15:00:16Z</time>
      </trkpt>
      <trkpt lat="45.46299" lon="4.67172">
        <ele>663</ele>
        <time>2015-07-27T15:00:21Z</time>
      </trkpt>
      <trkpt lat="45.46302" lon="4.67222">
        <ele>663</ele>
        <time>2015-07-27T15:00:26Z</time>
      </trkpt>
      <trkpt lat="45.46315" lon="4.67278">
        <ele>663</ele>
        <time>2015-07-27T15:00:32Z</time>
      </trkpt>
      <trkpt lat="45.46323" lon="4.67315">
        <ele>662</ele>
        <time>2015-07-27T15:00:36Z</time>
      </trkpt>
      <trkpt lat="45.46332" lon="4.6736">
        <ele>665</ele>
        <time>2015-07-27T15:00:41Z</time>
      </trkpt>
      <trkpt lat="45.46338" lon="4.67397">
        <ele>653</ele>
        <time>2015-07-27T15:00:45Z</time>
      </trkpt>
      <trkpt lat="45.46347" lon="4.67446">
        <ele>655</ele>
        <time>2015-07-27T15:00:50Z</time>
      </trkpt>
      <trkpt lat="45.46356" lon="4.67491">
        <ele>656</ele>
        <time>2015-07-27T15:00:55Z</time>
      </trkpt>
      <trkpt lat="45.46365" lon="4.67533">
        <ele>657</ele>
        <time>2015-07-27T15:01:00Z</time>
      </trkpt>
      <trkpt lat="45.46387" lon="4.67601">
        <ele>658</ele>
        <time>2015-07-27T15:01:08Z</time>
      </trkpt>
      <trkpt lat="45.4639" lon="4.6761">
        <ele>658</ele>
        <time>2015-07-27T15:01:09Z</time>
      </trkpt>
      <trkpt lat="45.46403" lon="4.67655">
        <ele>656</ele>
        <time>2015-07-27T15:01:14Z</time>
      </trkpt>
      <trkpt lat="45.46418" lon="4.67699">
        <ele>652</ele>
        <time>2015-07-27T15:01:19Z</time>
      </trkpt>
      <trkpt lat="45.46432" lon="4.67745">
        <ele>654</ele>
        <time>2015-07-27T15:01:24Z</time>
      </trkpt>
      <trkpt lat="45.46446" lon="4.67786">
        <ele>656</ele>
        <time>2015-07-27T15:01:29Z</time>
      </trkpt>
      <trkpt lat="45.4646" lon="4.67817">
        <ele>657</ele>
        <time>2015-07-27T15:01:34Z</time>
      </trkpt>
      <trkpt lat="45.46467" lon="4.67814">
        <ele>657</ele>
        <time>2015-07-27T15:01:39Z</time>
      </trkpt>
      <trkpt lat="45.46468" lon="4.67812">
        <ele>657</ele>
        <time>2015-07-27T15:01:44Z</time>
      </trkpt>
      <trkpt lat="45.46467" lon="4.67813">
        <ele>657</ele>
        <time>2015-07-27T15:01:47Z</time>
      </trkpt>
      <trkpt lat="45.46468" lon="4.6781">
        <ele>656</ele>
        <time>2015-07-27T15:01:52Z</time>
      </trkpt>
      <trkpt lat="45.46468" lon="4.67811">
        <ele>656</ele>
        <time>2015-07-27T15:01:57Z</time>
      </trkpt>
      <trkpt lat="45.4647" lon="4.6781">
        <ele>656</ele>
        <time>2015-07-27T15:02:00Z</time>
      </trkpt>
      <trkpt lat="45.46471" lon="4.67808">
        <ele>656</ele>
        <time>2015-07-27T15:02:05Z</time>
      </trkpt>
      <trkpt lat="45.46471" lon="4.67807">
        <ele>656</ele>
        <time>2015-07-27T15:02:10Z</time>
      </trkpt>
      <trkpt lat="45.4647" lon="4.67807">
        <ele>656</ele>
        <time>2015-07-27T15:02:12Z</time>
      </trkpt>
      <trkpt lat="45.4647" lon="4.67807">
        <ele>656</ele>
        <time>2015-07-27T15:02:15Z</time>
      </trkpt>
      <trkpt lat="45.4647" lon="4.67807">
        <ele>656</ele>
        <time>2015-07-27T15:02:20Z</time>
      </trkpt>
    </trkseg>
  </trk>
</gpx>